<?xml version="1.0" encoding="UTF-8" standalone="no" ?>
<gpx xmlns="http://www.topografix.com/GPX/1/1" xmlns:xsi="http://www.w3.org/2001/XMLSchema-instance" xsi:schemaLocation="http://www.topografix.com/GPX/1/1 http://www.topografix.com/GPX/1/1/gpx.xsd" version="1.1" creator="VisuGPX - https://www.visugpx.com">
  <metadata>
    <name>Proposition de sortie VTT 1</name>
  </metadata>
  <trk>
    <name><![CDATA[Proposition de sortie VTT]]></name>
    <trkseg>
      <trkpt lat="47.15358" lon="6.33311">
        <ele>633.078627</ele>
        <time>2021-03-29T17:59:56.790Z</time>
      </trkpt>
      <trkpt lat="47.15357" lon="6.33341">
        <ele>633.078627</ele>
        <time>2021-03-29T18:00:01.267Z</time>
      </trkpt>
      <trkpt lat="47.15357" lon="6.33361">
        <ele>633.078627</ele>
        <time>2021-03-29T18:00:04.557Z</time>
      </trkpt>
      <trkpt lat="47.15329" lon="6.33374">
        <ele>633.078627</ele>
        <time>2021-03-29T18:00:11.402Z</time>
      </trkpt>
      <trkpt lat="47.15319" lon="6.33376">
        <ele>633.078627</ele>
        <time>2021-03-29T18:00:13.926Z</time>
      </trkpt>
      <trkpt lat="47.15308" lon="6.33376">
        <ele>633.078627</ele>
        <time>2021-03-29T18:00:16.516Z</time>
      </trkpt>
      <trkpt lat="47.15308" lon="6.33372">
        <ele>633.078627</ele>
        <time>2021-03-29T18:00:17.250Z</time>
      </trkpt>
      <trkpt lat="47.15302" lon="6.33363">
        <ele>633.096224</ele>
        <time>2021-03-29T18:00:19.594Z</time>
      </trkpt>
      <trkpt lat="47.15299" lon="6.33362">
        <ele>633.105532</ele>
        <time>2021-03-29T18:00:20.359Z</time>
      </trkpt>
      <trkpt lat="47.153" lon="6.33347">
        <ele>633.136485</ele>
        <time>2021-03-29T18:00:22.823Z</time>
      </trkpt>
      <trkpt lat="47.15301" lon="6.33287">
        <ele>633.260176</ele>
        <time>2021-03-29T18:00:32.794Z</time>
      </trkpt>
      <trkpt lat="47.15301" lon="6.33285">
        <ele>633.26431</ele>
        <time>2021-03-29T18:00:33.107Z</time>
      </trkpt>
      <trkpt lat="47.15307" lon="6.33224">
        <ele>633.391236</ele>
        <time>2021-03-29T18:00:43.316Z</time>
      </trkpt>
      <trkpt lat="47.15276" lon="6.33227">
        <ele>633.483544</ele>
        <time>2021-03-29T18:01:04.391Z</time>
      </trkpt>
      <trkpt lat="47.15271" lon="6.33223">
        <ele>633.50329</ele>
        <time>2021-03-29T18:01:08.917Z</time>
      </trkpt>
      <trkpt lat="47.15259" lon="6.33214">
        <ele>633.543873</ele>
        <time>2021-03-29T18:01:18.194Z</time>
      </trkpt>
      <trkpt lat="47.1527" lon="6.33186">
        <ele>633.610572</ele>
        <time>2021-03-29T18:01:23.264Z</time>
      </trkpt>
      <trkpt lat="47.15269" lon="6.33156">
        <ele>633.806567</ele>
        <time>2021-03-29T18:01:28.173Z</time>
      </trkpt>
      <trkpt lat="47.15241" lon="6.33079">
        <ele>634.502567</ele>
        <time>2021-03-29T18:01:44.866Z</time>
      </trkpt>
      <trkpt lat="47.15237" lon="6.33065">
        <ele>634.625523</ele>
        <time>2021-03-29T18:01:47.676Z</time>
      </trkpt>
      <trkpt lat="47.1522" lon="6.33004">
        <ele>635.145386</ele>
        <time>2021-03-29T18:02:00.805Z</time>
      </trkpt>
      <trkpt lat="47.15213" lon="6.3299">
        <ele>635.283553</ele>
        <time>2021-03-29T18:02:04.402Z</time>
      </trkpt>
      <trkpt lat="47.15198" lon="6.3298">
        <ele>635.475581</ele>
        <time>2021-03-29T18:02:08.843Z</time>
      </trkpt>
      <trkpt lat="47.15195" lon="6.32979">
        <ele>635.510897</ele>
        <time>2021-03-29T18:02:09.761Z</time>
      </trkpt>
      <trkpt lat="47.15184" lon="6.32949">
        <ele>635.778288</ele>
        <time>2021-03-29T18:02:20.036Z</time>
      </trkpt>
      <trkpt lat="47.15178" lon="6.32902">
        <ele>636.149639</ele>
        <time>2021-03-29T18:02:33.987Z</time>
      </trkpt>
      <trkpt lat="47.1518" lon="6.32852">
        <ele>636.543531</ele>
        <time>2021-03-29T18:02:48.780Z</time>
      </trkpt>
      <trkpt lat="47.15182" lon="6.32771">
        <ele>637.176884</ele>
        <time>2021-03-29T18:03:12.577Z</time>
      </trkpt>
      <trkpt lat="47.15191" lon="6.32727">
        <ele>637.528878</ele>
        <time>2021-03-29T18:03:25.419Z</time>
      </trkpt>
      <trkpt lat="47.15212" lon="6.32665">
        <ele>637.612296</ele>
        <time>2021-03-29T18:03:43.378Z</time>
      </trkpt>
      <trkpt lat="47.15244" lon="6.32614">
        <ele>637.288632</ele>
        <time>2021-03-29T18:04:00.156Z</time>
      </trkpt>
      <trkpt lat="47.15251" lon="6.32555">
        <ele>637.014238</ele>
        <time>2021-03-29T18:04:14.157Z</time>
      </trkpt>
      <trkpt lat="47.15251" lon="6.32555">
        <ele>637.014238</ele>
        <time>2021-03-29T18:04:14.177Z</time>
      </trkpt>
      <trkpt lat="47.15251" lon="6.32555">
        <ele>637.014238</ele>
        <time>2021-03-29T18:04:14.181Z</time>
      </trkpt>
      <trkpt lat="47.15291" lon="6.32469">
        <ele>636.494256</ele>
        <time>2021-03-29T18:04:32.584Z</time>
      </trkpt>
      <trkpt lat="47.15291" lon="6.32469">
        <ele>636.494256</ele>
        <time>2021-03-29T18:04:32.597Z</time>
      </trkpt>
      <trkpt lat="47.15291" lon="6.32469">
        <ele>636.494256</ele>
        <time>2021-03-29T18:04:32.600Z</time>
      </trkpt>
      <trkpt lat="47.15352" lon="6.32448">
        <ele>635.467202</ele>
        <time>2021-03-29T18:04:48.897Z</time>
      </trkpt>
      <trkpt lat="47.15371" lon="6.324">
        <ele>634.85653</ele>
        <time>2021-03-29T18:04:58.621Z</time>
      </trkpt>
      <trkpt lat="47.15371" lon="6.324">
        <ele>634.85653</ele>
        <time>2021-03-29T18:04:58.675Z</time>
      </trkpt>
      <trkpt lat="47.15371" lon="6.324">
        <ele>634.85653</ele>
        <time>2021-03-29T18:04:58.675Z</time>
      </trkpt>
      <trkpt lat="47.15412" lon="6.32359">
        <ele>634.040484</ele>
        <time>2021-03-29T18:05:11.633Z</time>
      </trkpt>
      <trkpt lat="47.15412" lon="6.32359">
        <ele>634.040484</ele>
        <time>2021-03-29T18:05:11.637Z</time>
      </trkpt>
      <trkpt lat="47.15405" lon="6.32304">
        <ele>633.542132</ele>
        <time>2021-03-29T18:05:21.452Z</time>
      </trkpt>
      <trkpt lat="47.15391" lon="6.32264">
        <ele>633.339531</ele>
        <time>2021-03-29T18:05:31.585Z</time>
      </trkpt>
      <trkpt lat="47.15386" lon="6.32256">
        <ele>633.292179</ele>
        <time>2021-03-29T18:05:33.932Z</time>
      </trkpt>
      <trkpt lat="47.15235" lon="6.32014">
        <ele>632.335217</ele>
        <time>2021-03-29T18:06:53.991Z</time>
      </trkpt>
      <trkpt lat="47.15235" lon="6.32014">
        <ele>632.334666</ele>
        <time>2021-03-29T18:06:54.204Z</time>
      </trkpt>
      <trkpt lat="47.15227" lon="6.31993">
        <ele>632.317892</ele>
        <time>2021-03-29T18:07:00.297Z</time>
      </trkpt>
      <trkpt lat="47.1523" lon="6.31985">
        <ele>632.310875</ele>
        <time>2021-03-29T18:07:02.871Z</time>
      </trkpt>
      <trkpt lat="47.15254" lon="6.31954">
        <ele>632.27688</ele>
        <time>2021-03-29T18:07:14.985Z</time>
      </trkpt>
      <trkpt lat="47.15244" lon="6.31892">
        <ele>632.189227</ele>
        <time>2021-03-29T18:07:25.393Z</time>
      </trkpt>
      <trkpt lat="47.15233" lon="6.3183">
        <ele>631.996553</ele>
        <time>2021-03-29T18:07:35.145Z</time>
      </trkpt>
      <trkpt lat="47.15233" lon="6.31827">
        <ele>631.986157</ele>
        <time>2021-03-29T18:07:35.656Z</time>
      </trkpt>
      <trkpt lat="47.15232" lon="6.31821">
        <ele>631.968125</ele>
        <time>2021-03-29T18:07:36.541Z</time>
      </trkpt>
      <trkpt lat="47.15225" lon="6.31789">
        <ele>631.865156</ele>
        <time>2021-03-29T18:07:41.483Z</time>
      </trkpt>
      <trkpt lat="47.15213" lon="6.31733">
        <ele>631.688033</ele>
        <time>2021-03-29T18:07:49.903Z</time>
      </trkpt>
      <trkpt lat="47.15193" lon="6.31667">
        <ele>631.467033</ele>
        <time>2021-03-29T18:07:59.918Z</time>
      </trkpt>
      <trkpt lat="47.15174" lon="6.31621">
        <ele>631.646022</ele>
        <time>2021-03-29T18:08:07.518Z</time>
      </trkpt>
      <trkpt lat="47.1517" lon="6.31614">
        <ele>631.687091</ele>
        <time>2021-03-29T18:08:08.708Z</time>
      </trkpt>
      <trkpt lat="47.15165" lon="6.31605">
        <ele>631.741158</ele>
        <time>2021-03-29T18:08:10.350Z</time>
      </trkpt>
      <trkpt lat="47.15146" lon="6.31579">
        <ele>631.918468</ele>
        <time>2021-03-29T18:08:16.981Z</time>
      </trkpt>
      <trkpt lat="47.15122" lon="6.31556">
        <ele>632.113431</ele>
        <time>2021-03-29T18:08:24.652Z</time>
      </trkpt>
      <trkpt lat="47.15102" lon="6.31541">
        <ele>632.265352</ele>
        <time>2021-03-29T18:08:30.521Z</time>
      </trkpt>
      <trkpt lat="47.15096" lon="6.31539">
        <ele>632.310379</ele>
        <time>2021-03-29T18:08:32.185Z</time>
      </trkpt>
      <trkpt lat="47.15088" lon="6.31535">
        <ele>632.366573</ele>
        <time>2021-03-29T18:08:34.680Z</time>
      </trkpt>
      <trkpt lat="47.15084" lon="6.31532">
        <ele>632.398111</ele>
        <time>2021-03-29T18:08:36.115Z</time>
      </trkpt>
      <trkpt lat="47.15075" lon="6.31516">
        <ele>632.491825</ele>
        <time>2021-03-29T18:08:39.948Z</time>
      </trkpt>
      <trkpt lat="47.15073" lon="6.31507">
        <ele>632.535375</ele>
        <time>2021-03-29T18:08:41.874Z</time>
      </trkpt>
      <trkpt lat="47.1507" lon="6.31495">
        <ele>632.596425</ele>
        <time>2021-03-29T18:08:44.415Z</time>
      </trkpt>
      <trkpt lat="47.15066" lon="6.31485">
        <ele>632.648985</ele>
        <time>2021-03-29T18:08:47.036Z</time>
      </trkpt>
      <trkpt lat="47.15053" lon="6.31471">
        <ele>632.950057</ele>
        <time>2021-03-29T18:08:51.595Z</time>
      </trkpt>
      <trkpt lat="47.15048" lon="6.31472">
        <ele>633.060995</ele>
        <time>2021-03-29T18:08:53.440Z</time>
      </trkpt>
      <trkpt lat="47.15048" lon="6.31472">
        <ele>633.060995</ele>
        <time>2021-03-29T18:08:53.471Z</time>
      </trkpt>
      <trkpt lat="47.15048" lon="6.31472">
        <ele>633.060995</ele>
        <time>2021-03-29T18:08:53.471Z</time>
      </trkpt>
      <trkpt lat="47.14976" lon="6.31459">
        <ele>634.614595</ele>
        <time>2021-03-29T18:09:12.311Z</time>
      </trkpt>
      <trkpt lat="47.14976" lon="6.31459">
        <ele>634.614595</ele>
        <time>2021-03-29T18:09:12.311Z</time>
      </trkpt>
      <trkpt lat="47.14917" lon="6.31463">
        <ele>635.861649</ele>
        <time>2021-03-29T18:09:27.434Z</time>
      </trkpt>
      <trkpt lat="47.14917" lon="6.31463">
        <ele>635.861649</ele>
        <time>2021-03-29T18:09:27.434Z</time>
      </trkpt>
      <trkpt lat="47.14881" lon="6.31448">
        <ele>636.510839</ele>
        <time>2021-03-29T18:09:37.210Z</time>
      </trkpt>
      <trkpt lat="47.14881" lon="6.31448">
        <ele>636.510839</ele>
        <time>2021-03-29T18:09:37.228Z</time>
      </trkpt>
      <trkpt lat="47.14881" lon="6.31448">
        <ele>636.510839</ele>
        <time>2021-03-29T18:09:37.231Z</time>
      </trkpt>
      <trkpt lat="47.14831" lon="6.31388">
        <ele>636.592174</ele>
        <time>2021-03-29T18:09:53.889Z</time>
      </trkpt>
      <trkpt lat="47.14831" lon="6.31388">
        <ele>636.592174</ele>
        <time>2021-03-29T18:09:53.889Z</time>
      </trkpt>
      <trkpt lat="47.14804" lon="6.31341">
        <ele>636.645767</ele>
        <time>2021-03-29T18:10:04.871Z</time>
      </trkpt>
      <trkpt lat="47.14804" lon="6.31341">
        <ele>636.645767</ele>
        <time>2021-03-29T18:10:04.951Z</time>
      </trkpt>
      <trkpt lat="47.14804" lon="6.31341">
        <ele>636.645767</ele>
        <time>2021-03-29T18:10:04.962Z</time>
      </trkpt>
      <trkpt lat="47.14769" lon="6.31289">
        <ele>636.708354</ele>
        <time>2021-03-29T18:10:17.784Z</time>
      </trkpt>
      <trkpt lat="47.14734" lon="6.31238">
        <ele>636.393443</ele>
        <time>2021-03-29T18:10:30.606Z</time>
      </trkpt>
      <trkpt lat="47.14734" lon="6.31238">
        <ele>636.393443</ele>
        <time>2021-03-29T18:10:30.613Z</time>
      </trkpt>
      <trkpt lat="47.14709" lon="6.31173">
        <ele>635.89395</ele>
        <time>2021-03-29T18:10:43.660Z</time>
      </trkpt>
      <trkpt lat="47.14709" lon="6.31173">
        <ele>635.89395</ele>
        <time>2021-03-29T18:10:43.675Z</time>
      </trkpt>
      <trkpt lat="47.14709" lon="6.31173">
        <ele>635.89395</ele>
        <time>2021-03-29T18:10:43.678Z</time>
      </trkpt>
      <trkpt lat="47.14692" lon="6.31096">
        <ele>635.349712</ele>
        <time>2021-03-29T18:10:57.902Z</time>
      </trkpt>
      <trkpt lat="47.1469" lon="6.31097">
        <ele>635.327806</ele>
        <time>2021-03-29T18:10:58.629Z</time>
      </trkpt>
      <trkpt lat="47.1468" lon="6.31104">
        <ele>635.221739</ele>
        <time>2021-03-29T18:11:02.186Z</time>
      </trkpt>
      <trkpt lat="47.14655" lon="6.31121">
        <ele>634.945745</ele>
        <time>2021-03-29T18:11:11.558Z</time>
      </trkpt>
      <trkpt lat="47.1464" lon="6.31134">
        <ele>635.193547</ele>
        <time>2021-03-29T18:11:18.007Z</time>
      </trkpt>
      <trkpt lat="47.14614" lon="6.31156">
        <ele>635.646816</ele>
        <time>2021-03-29T18:11:29.328Z</time>
      </trkpt>
      <trkpt lat="47.14582" lon="6.31196">
        <ele>636.270377</ele>
        <time>2021-03-29T18:11:46.353Z</time>
      </trkpt>
      <trkpt lat="47.1455" lon="6.31221">
        <ele>636.806831</ele>
        <time>2021-03-29T18:12:03.015Z</time>
      </trkpt>
      <trkpt lat="47.14547" lon="6.31221">
        <ele>636.8559</ele>
        <time>2021-03-29T18:12:04.357Z</time>
      </trkpt>
      <trkpt lat="47.14502" lon="6.31215">
        <ele>637.51379</ele>
        <time>2021-03-29T18:12:26.261Z</time>
      </trkpt>
      <trkpt lat="47.14478" lon="6.31226">
        <ele>638.349498</ele>
        <time>2021-03-29T18:12:39.262Z</time>
      </trkpt>
      <trkpt lat="47.14453" lon="6.31249">
        <ele>639.506966</ele>
        <time>2021-03-29T18:12:54.821Z</time>
      </trkpt>
      <trkpt lat="47.14433" lon="6.31282">
        <ele>640.678461</ele>
        <time>2021-03-29T18:13:11.100Z</time>
      </trkpt>
      <trkpt lat="47.1442" lon="6.31293">
        <ele>641.25627</ele>
        <time>2021-03-29T18:13:19.482Z</time>
      </trkpt>
      <trkpt lat="47.14397" lon="6.31315">
        <ele>642.317424</ele>
        <time>2021-03-29T18:13:34.901Z</time>
      </trkpt>
      <trkpt lat="47.1431" lon="6.3144">
        <ele>645.738972</ele>
        <time>2021-03-29T18:14:38.054Z</time>
      </trkpt>
      <trkpt lat="47.14255" lon="6.31459">
        <ele>646.756523</ele>
        <time>2021-03-29T18:15:02.939Z</time>
      </trkpt>
      <trkpt lat="47.14248" lon="6.31464">
        <ele>646.899457</ele>
        <time>2021-03-29T18:15:06.617Z</time>
      </trkpt>
      <trkpt lat="47.14248" lon="6.31464">
        <ele>646.899457</ele>
        <time>2021-03-29T18:15:06.682Z</time>
      </trkpt>
      <trkpt lat="47.14248" lon="6.31464">
        <ele>646.899457</ele>
        <time>2021-03-29T18:15:06.682Z</time>
      </trkpt>
      <trkpt lat="47.14183" lon="6.31376">
        <ele>647.350001</ele>
        <time>2021-03-29T18:15:29.584Z</time>
      </trkpt>
      <trkpt lat="47.14142" lon="6.31355">
        <ele>646.758438</ele>
        <time>2021-03-29T18:15:44.149Z</time>
      </trkpt>
      <trkpt lat="47.14048" lon="6.31216">
        <ele>644.671561</ele>
        <time>2021-03-29T18:16:25.939Z</time>
      </trkpt>
      <trkpt lat="47.13995" lon="6.31143">
        <ele>643.056507</ele>
        <time>2021-03-29T18:16:47.766Z</time>
      </trkpt>
      <trkpt lat="47.13995" lon="6.3114">
        <ele>643.003482</ele>
        <time>2021-03-29T18:16:48.362Z</time>
      </trkpt>
      <trkpt lat="47.13937" lon="6.31046">
        <ele>641.314725</ele>
        <time>2021-03-29T18:17:16.016Z</time>
      </trkpt>
      <trkpt lat="47.13934" lon="6.31041">
        <ele>641.288531</ele>
        <time>2021-03-29T18:17:17.321Z</time>
      </trkpt>
      <trkpt lat="47.13922" lon="6.31019">
        <ele>641.18193</ele>
        <time>2021-03-29T18:17:23.792Z</time>
      </trkpt>
      <trkpt lat="47.13885" lon="6.30973">
        <ele>640.913345</ele>
        <time>2021-03-29T18:17:40.858Z</time>
      </trkpt>
      <trkpt lat="47.13883" lon="6.30966">
        <ele>640.885248</ele>
        <time>2021-03-29T18:17:42.287Z</time>
      </trkpt>
      <trkpt lat="47.13881" lon="6.30962">
        <ele>640.864756</ele>
        <time>2021-03-29T18:17:44.097Z</time>
      </trkpt>
      <trkpt lat="47.13856" lon="6.30921">
        <ele>640.655472</ele>
        <time>2021-03-29T18:17:57.805Z</time>
      </trkpt>
      <trkpt lat="47.13859" lon="6.30915">
        <ele>640.626847</ele>
        <time>2021-03-29T18:17:59.787Z</time>
      </trkpt>
      <trkpt lat="47.13817" lon="6.30852">
        <ele>640.410672</ele>
        <time>2021-03-29T18:18:21.939Z</time>
      </trkpt>
      <trkpt lat="47.13808" lon="6.30841">
        <ele>640.425702</ele>
        <time>2021-03-29T18:18:26.884Z</time>
      </trkpt>
      <trkpt lat="47.13803" lon="6.30835">
        <ele>640.433947</ele>
        <time>2021-03-29T18:18:29.344Z</time>
      </trkpt>
      <trkpt lat="47.13793" lon="6.3082">
        <ele>640.453181</ele>
        <time>2021-03-29T18:18:35.028Z</time>
      </trkpt>
      <trkpt lat="47.13782" lon="6.30806">
        <ele>640.471831</ele>
        <time>2021-03-29T18:18:40.850Z</time>
      </trkpt>
      <trkpt lat="47.13726" lon="6.30717">
        <ele>640.578623</ele>
        <time>2021-03-29T18:19:11.958Z</time>
      </trkpt>
      <trkpt lat="47.13725" lon="6.30717">
        <ele>640.579791</ele>
        <time>2021-03-29T18:19:12.278Z</time>
      </trkpt>
      <trkpt lat="47.13715" lon="6.30716">
        <ele>640.592627</ele>
        <time>2021-03-29T18:19:16.024Z</time>
      </trkpt>
      <trkpt lat="47.13612" lon="6.30838">
        <ele>640.491696</ele>
        <time>2021-03-29T18:20:03.042Z</time>
      </trkpt>
      <trkpt lat="47.13593" lon="6.30858">
        <ele>640.464053</ele>
        <time>2021-03-29T18:20:11.530Z</time>
      </trkpt>
      <trkpt lat="47.13566" lon="6.30783">
        <ele>640.468396</ele>
        <time>2021-03-29T18:20:25.590Z</time>
      </trkpt>
      <trkpt lat="47.13564" lon="6.30777">
        <ele>640.496658</ele>
        <time>2021-03-29T18:20:26.631Z</time>
      </trkpt>
      <trkpt lat="47.13533" lon="6.30713">
        <ele>640.812693</ele>
        <time>2021-03-29T18:20:39.933Z</time>
      </trkpt>
      <trkpt lat="47.13529" lon="6.30705">
        <ele>640.850095</ele>
        <time>2021-03-29T18:20:41.872Z</time>
      </trkpt>
      <trkpt lat="47.13507" lon="6.30654">
        <ele>641.091123</ele>
        <time>2021-03-29T18:20:52.110Z</time>
      </trkpt>
      <trkpt lat="47.13493" lon="6.30621">
        <ele>641.248385</ele>
        <time>2021-03-29T18:20:58.680Z</time>
      </trkpt>
      <trkpt lat="47.1349" lon="6.30613">
        <ele>641.286789</ele>
        <time>2021-03-29T18:21:00.591Z</time>
      </trkpt>
      <trkpt lat="47.13466" lon="6.30527">
        <ele>641.660009</ele>
        <time>2021-03-29T18:21:17.925Z</time>
      </trkpt>
      <trkpt lat="47.13458" lon="6.3043">
        <ele>642.059079</ele>
        <time>2021-03-29T18:21:36.062Z</time>
      </trkpt>
      <trkpt lat="47.13457" lon="6.30423">
        <ele>642.088158</ele>
        <time>2021-03-29T18:21:37.445Z</time>
      </trkpt>
      <trkpt lat="47.13446" lon="6.30365">
        <ele>642.330043</ele>
        <time>2021-03-29T18:21:47.348Z</time>
      </trkpt>
      <trkpt lat="47.13431" lon="6.30324">
        <ele>642.52233</ele>
        <time>2021-03-29T18:21:54.985Z</time>
      </trkpt>
      <trkpt lat="47.1342" lon="6.30297">
        <ele>642.423071</ele>
        <time>2021-03-29T18:21:59.727Z</time>
      </trkpt>
      <trkpt lat="47.13405" lon="6.30262">
        <ele>642.24304</ele>
        <time>2021-03-29T18:22:06.104Z</time>
      </trkpt>
      <trkpt lat="47.13383" lon="6.30226">
        <ele>642.03161</ele>
        <time>2021-03-29T18:22:13.339Z</time>
      </trkpt>
      <trkpt lat="47.1335" lon="6.30196">
        <ele>641.779668</ele>
        <time>2021-03-29T18:22:21.550Z</time>
      </trkpt>
      <trkpt lat="47.13279" lon="6.30155">
        <ele>641.247417</ele>
        <time>2021-03-29T18:22:36.491Z</time>
      </trkpt>
      <trkpt lat="47.13257" lon="6.30137">
        <ele>641.016806</ele>
        <time>2021-03-29T18:22:41.358Z</time>
      </trkpt>
      <trkpt lat="47.13236" lon="6.30091">
        <ele>640.663454</ele>
        <time>2021-03-29T18:22:48.916Z</time>
      </trkpt>
      <trkpt lat="47.13233" lon="6.30064">
        <ele>640.48936</ele>
        <time>2021-03-29T18:22:52.671Z</time>
      </trkpt>
      <trkpt lat="47.13249" lon="6.30003">
        <ele>640.079969</ele>
        <time>2021-03-29T18:23:01.685Z</time>
      </trkpt>
      <trkpt lat="47.13282" lon="6.29935">
        <ele>639.674021</ele>
        <time>2021-03-29T18:23:13.865Z</time>
      </trkpt>
      <trkpt lat="47.13357" lon="6.29832">
        <ele>639.462681</ele>
        <time>2021-03-29T18:23:38.038Z</time>
      </trkpt>
      <trkpt lat="47.13362" lon="6.29802">
        <ele>639.420437</ele>
        <time>2021-03-29T18:23:42.846Z</time>
      </trkpt>
      <trkpt lat="47.13335" lon="6.29674">
        <ele>638.202681</ele>
        <time>2021-03-29T18:24:02.596Z</time>
      </trkpt>
      <trkpt lat="47.13326" lon="6.29627">
        <ele>637.475365</ele>
        <time>2021-03-29T18:24:08.929Z</time>
      </trkpt>
      <trkpt lat="47.13297" lon="6.29526">
        <ele>635.852622</ele>
        <time>2021-03-29T18:24:21.973Z</time>
      </trkpt>
      <trkpt lat="47.13282" lon="6.29466">
        <ele>634.440183</ele>
        <time>2021-03-29T18:24:29.141Z</time>
      </trkpt>
      <trkpt lat="47.13276" lon="6.29433">
        <ele>633.503629</ele>
        <time>2021-03-29T18:24:32.890Z</time>
      </trkpt>
      <trkpt lat="47.13274" lon="6.29413">
        <ele>632.94583</ele>
        <time>2021-03-29T18:24:35.053Z</time>
      </trkpt>
      <trkpt lat="47.13275" lon="6.29397">
        <ele>632.509683</ele>
        <time>2021-03-29T18:24:36.750Z</time>
      </trkpt>
      <trkpt lat="47.13278" lon="6.29375">
        <ele>631.902392</ele>
        <time>2021-03-29T18:24:39.230Z</time>
      </trkpt>
      <trkpt lat="47.13281" lon="6.29366">
        <ele>631.611638</ele>
        <time>2021-03-29T18:24:40.335Z</time>
      </trkpt>
      <trkpt lat="47.13299" lon="6.2933">
        <ele>630.382077</ele>
        <time>2021-03-29T18:24:45.290Z</time>
      </trkpt>
      <trkpt lat="47.13305" lon="6.29319">
        <ele>629.98723</ele>
        <time>2021-03-29T18:24:46.837Z</time>
      </trkpt>
      <trkpt lat="47.13314" lon="6.29294">
        <ele>629.215979</ele>
        <time>2021-03-29T18:24:50.011Z</time>
      </trkpt>
      <trkpt lat="47.13326" lon="6.2926">
        <ele>628.161515</ele>
        <time>2021-03-29T18:24:54.322Z</time>
      </trkpt>
      <trkpt lat="47.13335" lon="6.2922">
        <ele>627.693165</ele>
        <time>2021-03-29T18:24:59.274Z</time>
      </trkpt>
      <trkpt lat="47.13311" lon="6.29179">
        <ele>627.11258</ele>
        <time>2021-03-29T18:25:05.729Z</time>
      </trkpt>
      <trkpt lat="47.13303" lon="6.29165">
        <ele>626.924847</ele>
        <time>2021-03-29T18:25:07.931Z</time>
      </trkpt>
      <trkpt lat="47.13287" lon="6.29136">
        <ele>626.523018</ele>
        <time>2021-03-29T18:25:12.746Z</time>
      </trkpt>
      <trkpt lat="47.13273" lon="6.29109">
        <ele>626.16831</ele>
        <time>2021-03-29T18:25:17.372Z</time>
      </trkpt>
      <trkpt lat="47.13279" lon="6.29066">
        <ele>625.699251</ele>
        <time>2021-03-29T18:25:23.655Z</time>
      </trkpt>
      <trkpt lat="47.13272" lon="6.29026">
        <ele>625.278591</ele>
        <time>2021-03-29T18:25:29.764Z</time>
      </trkpt>
      <trkpt lat="47.13266" lon="6.29014">
        <ele>625.183776</ele>
        <time>2021-03-29T18:25:31.971Z</time>
      </trkpt>
      <trkpt lat="47.13239" lon="6.28963">
        <ele>624.755702</ele>
        <time>2021-03-29T18:25:41.209Z</time>
      </trkpt>
      <trkpt lat="47.13208" lon="6.28906">
        <ele>624.282811</ele>
        <time>2021-03-29T18:25:51.038Z</time>
      </trkpt>
      <trkpt lat="47.132" lon="6.28894">
        <ele>624.174802</ele>
        <time>2021-03-29T18:25:53.171Z</time>
      </trkpt>
      <trkpt lat="47.13191" lon="6.28886">
        <ele>624.07189</ele>
        <time>2021-03-29T18:25:55.234Z</time>
      </trkpt>
      <trkpt lat="47.13179" lon="6.28878">
        <ele>623.949312</ele>
        <time>2021-03-29T18:25:57.488Z</time>
      </trkpt>
      <trkpt lat="47.13146" lon="6.28817">
        <ele>623.447675</ele>
        <time>2021-03-29T18:26:07.037Z</time>
      </trkpt>
      <trkpt lat="47.13096" lon="6.28757">
        <ele>622.866091</ele>
        <time>2021-03-29T18:26:18.722Z</time>
      </trkpt>
      <trkpt lat="47.13082" lon="6.28747">
        <ele>622.723717</ele>
        <time>2021-03-29T18:26:21.862Z</time>
      </trkpt>
      <trkpt lat="47.13071" lon="6.28735">
        <ele>622.602982</ele>
        <time>2021-03-29T18:26:24.330Z</time>
      </trkpt>
      <trkpt lat="47.13063" lon="6.28723">
        <ele>622.500505</ele>
        <time>2021-03-29T18:26:26.469Z</time>
      </trkpt>
      <trkpt lat="47.13047" lon="6.28684">
        <ele>622.219137</ele>
        <time>2021-03-29T18:26:32.938Z</time>
      </trkpt>
      <trkpt lat="47.13027" lon="6.28619">
        <ele>622.330354</ele>
        <time>2021-03-29T18:26:44.868Z</time>
      </trkpt>
      <trkpt lat="47.13019" lon="6.28597">
        <ele>622.614876</ele>
        <time>2021-03-29T18:26:49.071Z</time>
      </trkpt>
      <trkpt lat="47.13012" lon="6.2858">
        <ele>622.834015</ele>
        <time>2021-03-29T18:26:52.379Z</time>
      </trkpt>
      <trkpt lat="47.13003" lon="6.2856">
        <ele>623.111558</ele>
        <time>2021-03-29T18:26:57.711Z</time>
      </trkpt>
      <trkpt lat="47.12993" lon="6.2854">
        <ele>623.393199</ele>
        <time>2021-03-29T18:27:01.897Z</time>
      </trkpt>
      <trkpt lat="47.12974" lon="6.28505">
        <ele>623.905944</ele>
        <time>2021-03-29T18:27:11.794Z</time>
      </trkpt>
      <trkpt lat="47.12957" lon="6.28477">
        <ele>624.339575</ele>
        <time>2021-03-29T18:27:20.463Z</time>
      </trkpt>
      <trkpt lat="47.12913" lon="6.28425">
        <ele>625.241385</ele>
        <time>2021-03-29T18:27:38.298Z</time>
      </trkpt>
      <trkpt lat="47.12903" lon="6.28412">
        <ele>625.421984</ele>
        <time>2021-03-29T18:27:43.135Z</time>
      </trkpt>
      <trkpt lat="47.12898" lon="6.28404">
        <ele>625.519307</ele>
        <time>2021-03-29T18:27:45.397Z</time>
      </trkpt>
      <trkpt lat="47.12892" lon="6.28394">
        <ele>625.641744</ele>
        <time>2021-03-29T18:27:47.770Z</time>
      </trkpt>
      <trkpt lat="47.12873" lon="6.28357">
        <ele>626.077233</ele>
        <time>2021-03-29T18:27:57.417Z</time>
      </trkpt>
      <trkpt lat="47.12802" lon="6.28259">
        <ele>627.40485</ele>
        <time>2021-03-29T18:28:22.788Z</time>
      </trkpt>
      <trkpt lat="47.128" lon="6.28255">
        <ele>627.449507</ele>
        <time>2021-03-29T18:28:23.792Z</time>
      </trkpt>
      <trkpt lat="47.12779" lon="6.28215">
        <ele>627.308033</ele>
        <time>2021-03-29T18:28:31.119Z</time>
      </trkpt>
      <trkpt lat="47.12693" lon="6.28072">
        <ele>626.723012</ele>
        <time>2021-03-29T18:28:57.238Z</time>
      </trkpt>
      <trkpt lat="47.12594" lon="6.2791">
        <ele>625.755603</ele>
        <time>2021-03-29T18:29:26.304Z</time>
      </trkpt>
      <trkpt lat="47.12542" lon="6.27829">
        <ele>625.632434</ele>
        <time>2021-03-29T18:29:41.952Z</time>
      </trkpt>
      <trkpt lat="47.12511" lon="6.27781">
        <ele>625.961654</ele>
        <time>2021-03-29T18:29:51.794Z</time>
      </trkpt>
      <trkpt lat="47.12431" lon="6.27649">
        <ele>627.176309</ele>
        <time>2021-03-29T18:30:24.901Z</time>
      </trkpt>
      <trkpt lat="47.12428" lon="6.27644">
        <ele>627.320554</ele>
        <time>2021-03-29T18:30:26.218Z</time>
      </trkpt>
      <trkpt lat="47.12386" lon="6.27688">
        <ele>628.954775</ele>
        <time>2021-03-29T18:30:50.406Z</time>
      </trkpt>
      <trkpt lat="47.12284" lon="6.27772">
        <ele>632.832366</ele>
        <time>2021-03-29T18:31:51.763Z</time>
      </trkpt>
      <trkpt lat="47.12194" lon="6.27891">
        <ele>639.19184</ele>
        <time>2021-03-29T18:33:00.675Z</time>
      </trkpt>
      <trkpt lat="47.1214" lon="6.27944">
        <ele>642.631955</ele>
        <time>2021-03-29T18:33:41.872Z</time>
      </trkpt>
      <trkpt lat="47.12109" lon="6.27973">
        <ele>644.584674</ele>
        <time>2021-03-29T18:34:04.781Z</time>
      </trkpt>
      <trkpt lat="47.1207" lon="6.28047">
        <ele>647.998784</ele>
        <time>2021-03-29T18:34:42.810Z</time>
      </trkpt>
      <trkpt lat="47.12055" lon="6.28076">
        <ele>649.32023</ele>
        <time>2021-03-29T18:34:57.520Z</time>
      </trkpt>
      <trkpt lat="47.12031" lon="6.28058">
        <ele>650.783541</ele>
        <time>2021-03-29T18:35:12.593Z</time>
      </trkpt>
      <trkpt lat="47.11999" lon="6.28014">
        <ele>652.174991</ele>
        <time>2021-03-29T18:35:35.806Z</time>
      </trkpt>
      <trkpt lat="47.11929" lon="6.27891">
        <ele>654.36612</ele>
        <time>2021-03-29T18:36:24.948Z</time>
      </trkpt>
      <trkpt lat="47.11925" lon="6.27857">
        <ele>654.849261</ele>
        <time>2021-03-29T18:36:33.820Z</time>
      </trkpt>
      <trkpt lat="47.11921" lon="6.27841">
        <ele>655.07715</ele>
        <time>2021-03-29T18:36:38.306Z</time>
      </trkpt>
      <trkpt lat="47.1188" lon="6.27789">
        <ele>655.617739</ele>
        <time>2021-03-29T18:36:58.559Z</time>
      </trkpt>
      <trkpt lat="47.11877" lon="6.27773">
        <ele>655.711639</ele>
        <time>2021-03-29T18:37:02.664Z</time>
      </trkpt>
      <trkpt lat="47.1187" lon="6.27745">
        <ele>655.88439</ele>
        <time>2021-03-29T18:37:10.557Z</time>
      </trkpt>
      <trkpt lat="47.11865" lon="6.2773">
        <ele>655.977144</ele>
        <time>2021-03-29T18:37:14.511Z</time>
      </trkpt>
      <trkpt lat="47.11828" lon="6.27667">
        <ele>656.458165</ele>
        <time>2021-03-29T18:37:38.098Z</time>
      </trkpt>
      <trkpt lat="47.11831" lon="6.27649">
        <ele>656.560059</ele>
        <time>2021-03-29T18:37:43.139Z</time>
      </trkpt>
      <trkpt lat="47.1178" lon="6.27573">
        <ele>658.24463</ele>
        <time>2021-03-29T18:38:15.720Z</time>
      </trkpt>
      <trkpt lat="47.11705" lon="6.27553">
        <ele>660.468194</ele>
        <time>2021-03-29T18:38:52.953Z</time>
      </trkpt>
      <trkpt lat="47.11695" lon="6.27566">
        <ele>660.846604</ele>
        <time>2021-03-29T18:38:59.275Z</time>
      </trkpt>
      <trkpt lat="47.11668" lon="6.27581">
        <ele>661.698307</ele>
        <time>2021-03-29T18:39:14.774Z</time>
      </trkpt>
      <trkpt lat="47.11655" lon="6.27589">
        <ele>662.171494</ele>
        <time>2021-03-29T18:39:22.093Z</time>
      </trkpt>
      <trkpt lat="47.11652" lon="6.27592">
        <ele>662.345379</ele>
        <time>2021-03-29T18:39:25.041Z</time>
      </trkpt>
      <trkpt lat="47.11622" lon="6.27606">
        <ele>663.75385</ele>
        <time>2021-03-29T18:39:41.827Z</time>
      </trkpt>
      <trkpt lat="47.11555" lon="6.27672">
        <ele>667.318871</ele>
        <time>2021-03-29T18:40:27.210Z</time>
      </trkpt>
      <trkpt lat="47.11511" lon="6.27729">
        <ele>669.94437</ele>
        <time>2021-03-29T18:40:59.545Z</time>
      </trkpt>
      <trkpt lat="47.11485" lon="6.27776">
        <ele>671.281023</ele>
        <time>2021-03-29T18:41:21.612Z</time>
      </trkpt>
      <trkpt lat="47.11452" lon="6.27833">
        <ele>672.888283</ele>
        <time>2021-03-29T18:41:48.038Z</time>
      </trkpt>
      <trkpt lat="47.11339" lon="6.27949">
        <ele>676.593492</ele>
        <time>2021-03-29T18:42:52.197Z</time>
      </trkpt>
      <trkpt lat="47.11312" lon="6.27988">
        <ele>677.291164</ele>
        <time>2021-03-29T18:43:08.435Z</time>
      </trkpt>
      <trkpt lat="47.11246" lon="6.28121">
        <ele>679.469191</ele>
        <time>2021-03-29T18:43:57.289Z</time>
      </trkpt>
      <trkpt lat="47.1123" lon="6.2815">
        <ele>680.077119</ele>
        <time>2021-03-29T18:44:08.401Z</time>
      </trkpt>
      <trkpt lat="47.11221" lon="6.28169">
        <ele>680.452513</ele>
        <time>2021-03-29T18:44:13.270Z</time>
      </trkpt>
      <trkpt lat="47.11202" lon="6.28213">
        <ele>681.298781</ele>
        <time>2021-03-29T18:44:24.097Z</time>
      </trkpt>
      <trkpt lat="47.11182" lon="6.28271">
        <ele>682.347118</ele>
        <time>2021-03-29T18:44:37.997Z</time>
      </trkpt>
      <trkpt lat="47.11179" lon="6.28279">
        <ele>682.508737</ele>
        <time>2021-03-29T18:44:40.087Z</time>
      </trkpt>
      <trkpt lat="47.11176" lon="6.28291">
        <ele>682.716367</ele>
        <time>2021-03-29T18:44:43.348Z</time>
      </trkpt>
      <trkpt lat="47.11138" lon="6.28483">
        <ele>687.803549</ele>
        <time>2021-03-29T18:45:33.349Z</time>
      </trkpt>
      <trkpt lat="47.11124" lon="6.28829">
        <ele>698.679845</ele>
        <time>2021-03-29T18:47:12.585Z</time>
      </trkpt>
      <trkpt lat="47.11101" lon="6.28941">
        <ele>701.914842</ele>
        <time>2021-03-29T18:47:44.466Z</time>
      </trkpt>
      <trkpt lat="47.11081" lon="6.29001">
        <ele>703.682818</ele>
        <time>2021-03-29T18:48:01.276Z</time>
      </trkpt>
      <trkpt lat="47.11057" lon="6.29065">
        <ele>705.642695</ele>
        <time>2021-03-29T18:48:19.617Z</time>
      </trkpt>
      <trkpt lat="47.11038" lon="6.29106">
        <ele>706.88432</ele>
        <time>2021-03-29T18:48:31.381Z</time>
      </trkpt>
      <trkpt lat="47.1101" lon="6.29161">
        <ele>708.5679</ele>
        <time>2021-03-29T18:48:47.908Z</time>
      </trkpt>
      <trkpt lat="47.10999" lon="6.2918">
        <ele>709.175877</ele>
        <time>2021-03-29T18:48:54.151Z</time>
      </trkpt>
      <trkpt lat="47.10987" lon="6.29198">
        <ele>709.777199</ele>
        <time>2021-03-29T18:49:00.395Z</time>
      </trkpt>
      <trkpt lat="47.10975" lon="6.29216">
        <ele>710.411076</ele>
        <time>2021-03-29T18:49:06.684Z</time>
      </trkpt>
      <trkpt lat="47.1097" lon="6.29223">
        <ele>710.662587</ele>
        <time>2021-03-29T18:49:09.255Z</time>
      </trkpt>
      <trkpt lat="47.10958" lon="6.2924">
        <ele>711.247191</ele>
        <time>2021-03-29T18:49:14.966Z</time>
      </trkpt>
      <trkpt lat="47.10946" lon="6.29269">
        <ele>712.062639</ele>
        <time>2021-03-29T18:49:22.931Z</time>
      </trkpt>
      <trkpt lat="47.10939" lon="6.29295">
        <ele>712.735161</ele>
        <time>2021-03-29T18:49:30.154Z</time>
      </trkpt>
      <trkpt lat="47.10932" lon="6.29325">
        <ele>713.781281</ele>
        <time>2021-03-29T18:49:38.335Z</time>
      </trkpt>
      <trkpt lat="47.10929" lon="6.29338">
        <ele>714.236015</ele>
        <time>2021-03-29T18:49:42.102Z</time>
      </trkpt>
      <trkpt lat="47.10926" lon="6.2935">
        <ele>714.683106</ele>
        <time>2021-03-29T18:49:45.632Z</time>
      </trkpt>
      <trkpt lat="47.1091" lon="6.29364">
        <ele>715.592125</ele>
        <time>2021-03-29T18:49:54.540Z</time>
      </trkpt>
      <trkpt lat="47.10872" lon="6.29444">
        <ele>718.888237</ele>
        <time>2021-03-29T18:50:23.889Z</time>
      </trkpt>
      <trkpt lat="47.10862" lon="6.29463">
        <ele>719.660535</ele>
        <time>2021-03-29T18:50:30.632Z</time>
      </trkpt>
      <trkpt lat="47.10847" lon="6.29495">
        <ele>720.986645</ele>
        <time>2021-03-29T18:50:43.545Z</time>
      </trkpt>
      <trkpt lat="47.10831" lon="6.29509">
        <ele>721.841095</ele>
        <time>2021-03-29T18:50:51.165Z</time>
      </trkpt>
      <trkpt lat="47.10825" lon="6.29514">
        <ele>722.087066</ele>
        <time>2021-03-29T18:50:54.993Z</time>
      </trkpt>
      <trkpt lat="47.10801" lon="6.29534">
        <ele>723.17072</ele>
        <time>2021-03-29T18:51:05.911Z</time>
      </trkpt>
      <trkpt lat="47.10757" lon="6.29591">
        <ele>725.434886</ele>
        <time>2021-03-29T18:51:29.562Z</time>
      </trkpt>
      <trkpt lat="47.1073" lon="6.29633">
        <ele>726.958784</ele>
        <time>2021-03-29T18:51:44.662Z</time>
      </trkpt>
      <trkpt lat="47.10747" lon="6.29678">
        <ele>728.292266</ele>
        <time>2021-03-29T18:51:56.809Z</time>
      </trkpt>
      <trkpt lat="47.10757" lon="6.29722">
        <ele>729.129513</ele>
        <time>2021-03-29T18:52:06.271Z</time>
      </trkpt>
      <trkpt lat="47.10759" lon="6.29727">
        <ele>729.206843</ele>
        <time>2021-03-29T18:52:07.439Z</time>
      </trkpt>
      <trkpt lat="47.1076" lon="6.29733">
        <ele>729.29261</ele>
        <time>2021-03-29T18:52:08.657Z</time>
      </trkpt>
      <trkpt lat="47.10773" lon="6.2979">
        <ele>730.183192</ele>
        <time>2021-03-29T18:52:21.587Z</time>
      </trkpt>
      <trkpt lat="47.10786" lon="6.29854">
        <ele>731.183978</ele>
        <time>2021-03-29T18:52:35.791Z</time>
      </trkpt>
      <trkpt lat="47.10809" lon="6.29923">
        <ele>732.322207</ele>
        <time>2021-03-29T18:52:51.151Z</time>
      </trkpt>
      <trkpt lat="47.10812" lon="6.29935">
        <ele>732.516229</ele>
        <time>2021-03-29T18:52:53.812Z</time>
      </trkpt>
      <trkpt lat="47.10798" lon="6.29942">
        <ele>732.957048</ele>
        <time>2021-03-29T18:52:59.391Z</time>
      </trkpt>
      <trkpt lat="47.10749" lon="6.29963">
        <ele>734.572049</ele>
        <time>2021-03-29T18:53:17.037Z</time>
      </trkpt>
      <trkpt lat="47.10696" lon="6.29971">
        <ele>736.21613</ele>
        <time>2021-03-29T18:53:36.893Z</time>
      </trkpt>
      <trkpt lat="47.10671" lon="6.2999">
        <ele>737.098232</ele>
        <time>2021-03-29T18:53:47.134Z</time>
      </trkpt>
      <trkpt lat="47.1065" lon="6.30007">
        <ele>737.847049</ele>
        <time>2021-03-29T18:53:56.111Z</time>
      </trkpt>
      <trkpt lat="47.10643" lon="6.30013">
        <ele>738.086795</ele>
        <time>2021-03-29T18:53:58.598Z</time>
      </trkpt>
      <trkpt lat="47.1061" lon="6.30033">
        <ele>739.013122</ele>
        <time>2021-03-29T18:54:09.628Z</time>
      </trkpt>
      <trkpt lat="47.10609" lon="6.30034">
        <ele>739.055998</ele>
        <time>2021-03-29T18:54:10.265Z</time>
      </trkpt>
      <trkpt lat="47.10579" lon="6.30043">
        <ele>739.843441</ele>
        <time>2021-03-29T18:54:20.122Z</time>
      </trkpt>
      <trkpt lat="47.10543" lon="6.30053">
        <ele>740.804297</ele>
        <time>2021-03-29T18:54:32.282Z</time>
      </trkpt>
      <trkpt lat="47.10533" lon="6.30056">
        <ele>741.076274</ele>
        <time>2021-03-29T18:54:35.359Z</time>
      </trkpt>
      <trkpt lat="47.10507" lon="6.30067">
        <ele>741.778304</ele>
        <time>2021-03-29T18:54:44.645Z</time>
      </trkpt>
      <trkpt lat="47.10504" lon="6.30068">
        <ele>741.851547</ele>
        <time>2021-03-29T18:54:45.604Z</time>
      </trkpt>
      <trkpt lat="47.10459" lon="6.30087">
        <ele>743.128103</ele>
        <time>2021-03-29T18:54:59.642Z</time>
      </trkpt>
      <trkpt lat="47.10434" lon="6.30098">
        <ele>743.925702</ele>
        <time>2021-03-29T18:55:07.867Z</time>
      </trkpt>
      <trkpt lat="47.10318" lon="6.30132">
        <ele>747.594739</ele>
        <time>2021-03-29T18:55:48.982Z</time>
      </trkpt>
      <trkpt lat="47.10283" lon="6.30149">
        <ele>748.697568</ele>
        <time>2021-03-29T18:56:03.399Z</time>
      </trkpt>
      <trkpt lat="47.10252" lon="6.3017">
        <ele>749.684497</ele>
        <time>2021-03-29T18:56:16.820Z</time>
      </trkpt>
      <trkpt lat="47.10248" lon="6.30173">
        <ele>749.80968</ele>
        <time>2021-03-29T18:56:18.349Z</time>
      </trkpt>
      <trkpt lat="47.10196" lon="6.30207">
        <ele>751.406731</ele>
        <time>2021-03-29T18:56:38.366Z</time>
      </trkpt>
      <trkpt lat="47.10149" lon="6.30233">
        <ele>752.862965</ele>
        <time>2021-03-29T18:56:54.694Z</time>
      </trkpt>
      <trkpt lat="47.1012" lon="6.30245">
        <ele>753.447713</ele>
        <time>2021-03-29T18:57:03.681Z</time>
      </trkpt>
      <trkpt lat="47.10099" lon="6.30254">
        <ele>753.347562</ele>
        <time>2021-03-29T18:57:09.322Z</time>
      </trkpt>
      <trkpt lat="47.0987" lon="6.30355">
        <ele>751.164199</ele>
        <time>2021-03-29T18:57:55.022Z</time>
      </trkpt>
      <trkpt lat="47.09768" lon="6.30406">
        <ele>749.461624</ele>
        <time>2021-03-29T18:58:13.489Z</time>
      </trkpt>
      <trkpt lat="47.09745" lon="6.30418">
        <ele>749.214737</ele>
        <time>2021-03-29T18:58:17.646Z</time>
      </trkpt>
      <trkpt lat="47.09717" lon="6.30439">
        <ele>748.888426</ele>
        <time>2021-03-29T18:58:23.333Z</time>
      </trkpt>
      <trkpt lat="47.09661" lon="6.30491">
        <ele>748.210347</ele>
        <time>2021-03-29T18:58:36.438Z</time>
      </trkpt>
      <trkpt lat="47.0966" lon="6.30492">
        <ele>748.188715</ele>
        <time>2021-03-29T18:58:36.940Z</time>
      </trkpt>
      <trkpt lat="47.09618" lon="6.30532">
        <ele>747.931059</ele>
        <time>2021-03-29T18:58:47.585Z</time>
      </trkpt>
      <trkpt lat="47.09589" lon="6.30565">
        <ele>748.465598</ele>
        <time>2021-03-29T18:58:57.160Z</time>
      </trkpt>
      <trkpt lat="47.09594" lon="6.3059">
        <ele>748.729118</ele>
        <time>2021-03-29T18:59:05.146Z</time>
      </trkpt>
      <trkpt lat="47.0964" lon="6.30868">
        <ele>751.542217</ele>
        <time>2021-03-29T19:00:33.165Z</time>
      </trkpt>
      <trkpt lat="47.09651" lon="6.30965">
        <ele>752.492291</ele>
        <time>2021-03-29T19:01:01.188Z</time>
      </trkpt>
      <trkpt lat="47.09716" lon="6.31171">
        <ele>753.291785</ele>
        <time>2021-03-29T19:02:01.734Z</time>
      </trkpt>
      <trkpt lat="47.09748" lon="6.31359">
        <ele>752.957352</ele>
        <time>2021-03-29T19:02:49.625Z</time>
      </trkpt>
      <trkpt lat="47.09748" lon="6.31378">
        <ele>752.871793</ele>
        <time>2021-03-29T19:02:54.159Z</time>
      </trkpt>
      <trkpt lat="47.09723" lon="6.31435">
        <ele>752.566459</ele>
        <time>2021-03-29T19:03:10.043Z</time>
      </trkpt>
      <trkpt lat="47.09716" lon="6.31497">
        <ele>752.284278</ele>
        <time>2021-03-29T19:03:24.654Z</time>
      </trkpt>
      <trkpt lat="47.09726" lon="6.31567">
        <ele>751.058359</ele>
        <time>2021-03-29T19:03:40.661Z</time>
      </trkpt>
      <trkpt lat="47.09713" lon="6.31591">
        <ele>750.48298</ele>
        <time>2021-03-29T19:03:47.121Z</time>
      </trkpt>
      <trkpt lat="47.09656" lon="6.31682">
        <ele>748.204768</ele>
        <time>2021-03-29T19:04:12.180Z</time>
      </trkpt>
      <trkpt lat="47.0964" lon="6.31707">
        <ele>747.579016</ele>
        <time>2021-03-29T19:04:18.748Z</time>
      </trkpt>
      <trkpt lat="47.09631" lon="6.31732">
        <ele>746.918822</ele>
        <time>2021-03-29T19:04:24.268Z</time>
      </trkpt>
      <trkpt lat="47.09604" lon="6.31798">
        <ele>744.838078</ele>
        <time>2021-03-29T19:04:39.245Z</time>
      </trkpt>
      <trkpt lat="47.09604" lon="6.31815">
        <ele>744.366333</ele>
        <time>2021-03-29T19:04:42.738Z</time>
      </trkpt>
      <trkpt lat="47.09577" lon="6.31883">
        <ele>742.2591</ele>
        <time>2021-03-29T19:04:57.843Z</time>
      </trkpt>
      <trkpt lat="47.09547" lon="6.31944">
        <ele>740.262042</ele>
        <time>2021-03-29T19:05:12.476Z</time>
      </trkpt>
      <trkpt lat="47.09515" lon="6.31998">
        <ele>738.675181</ele>
        <time>2021-03-29T19:05:27.086Z</time>
      </trkpt>
      <trkpt lat="47.09467" lon="6.32078">
        <ele>736.308826</ele>
        <time>2021-03-29T19:05:48.781Z</time>
      </trkpt>
      <trkpt lat="47.09463" lon="6.32092">
        <ele>735.969275</ele>
        <time>2021-03-29T19:05:51.837Z</time>
      </trkpt>
      <trkpt lat="47.09433" lon="6.32111">
        <ele>734.899778</ele>
        <time>2021-03-29T19:06:01.470Z</time>
      </trkpt>
      <trkpt lat="47.09404" lon="6.32119">
        <ele>733.797086</ele>
        <time>2021-03-29T19:06:10.130Z</time>
      </trkpt>
      <trkpt lat="47.09397" lon="6.32126">
        <ele>733.464209</ele>
        <time>2021-03-29T19:06:12.478Z</time>
      </trkpt>
      <trkpt lat="47.0938" lon="6.32139">
        <ele>732.691738</ele>
        <time>2021-03-29T19:06:18.013Z</time>
      </trkpt>
      <trkpt lat="47.09362" lon="6.32167">
        <ele>731.609662</ele>
        <time>2021-03-29T19:06:22.359Z</time>
      </trkpt>
      <trkpt lat="47.09344" lon="6.32197">
        <ele>730.505684</ele>
        <time>2021-03-29T19:06:26.832Z</time>
      </trkpt>
      <trkpt lat="47.09332" lon="6.3223">
        <ele>729.49183</ele>
        <time>2021-03-29T19:06:30.916Z</time>
      </trkpt>
      <trkpt lat="47.09323" lon="6.32304">
        <ele>727.390645</ele>
        <time>2021-03-29T19:06:39.213Z</time>
      </trkpt>
      <trkpt lat="47.09312" lon="6.32339">
        <ele>726.623153</ele>
        <time>2021-03-29T19:06:43.423Z</time>
      </trkpt>
      <trkpt lat="47.09289" lon="6.3239">
        <ele>725.543323</ele>
        <time>2021-03-29T19:06:50.412Z</time>
      </trkpt>
      <trkpt lat="47.09271" lon="6.32415">
        <ele>724.906306</ele>
        <time>2021-03-29T19:06:54.645Z</time>
      </trkpt>
      <trkpt lat="47.09252" lon="6.32425">
        <ele>724.387016</ele>
        <time>2021-03-29T19:06:58.234Z</time>
      </trkpt>
      <trkpt lat="47.09224" lon="6.32422">
        <ele>723.672413</ele>
        <time>2021-03-29T19:07:03.505Z</time>
      </trkpt>
      <trkpt lat="47.09209" lon="6.32431">
        <ele>723.2447</ele>
        <time>2021-03-29T19:07:06.458Z</time>
      </trkpt>
      <trkpt lat="47.092" lon="6.3244">
        <ele>722.970143</ele>
        <time>2021-03-29T19:07:08.998Z</time>
      </trkpt>
      <trkpt lat="47.09163" lon="6.32542">
        <ele>722.766904</ele>
        <time>2021-03-29T19:07:26.282Z</time>
      </trkpt>
      <trkpt lat="47.09126" lon="6.32613">
        <ele>723.029672</ele>
        <time>2021-03-29T19:07:41.666Z</time>
      </trkpt>
      <trkpt lat="47.09025" lon="6.32717">
        <ele>724.965147</ele>
        <time>2021-03-29T19:08:17.289Z</time>
      </trkpt>
      <trkpt lat="47.08953" lon="6.3281">
        <ele>727.451418</ele>
        <time>2021-03-29T19:08:45.889Z</time>
      </trkpt>
      <trkpt lat="47.08914" lon="6.32931">
        <ele>734.606512</ele>
        <time>2021-03-29T19:09:33.113Z</time>
      </trkpt>
      <trkpt lat="47.08892" lon="6.32961">
        <ele>737.394392</ele>
        <time>2021-03-29T19:09:51.651Z</time>
      </trkpt>
      <trkpt lat="47.08876" lon="6.32967">
        <ele>738.926565</ele>
        <time>2021-03-29T19:10:01.240Z</time>
      </trkpt>
      <trkpt lat="47.08864" lon="6.32972">
        <ele>740.10352</ele>
        <time>2021-03-29T19:10:10.560Z</time>
      </trkpt>
      <trkpt lat="47.08854" lon="6.3297">
        <ele>741.042983</ele>
        <time>2021-03-29T19:10:17.878Z</time>
      </trkpt>
      <trkpt lat="47.08838" lon="6.32965">
        <ele>742.56912</ele>
        <time>2021-03-29T19:10:28.371Z</time>
      </trkpt>
      <trkpt lat="47.08812" lon="6.32965">
        <ele>744.991756</ele>
        <time>2021-03-29T19:10:52.021Z</time>
      </trkpt>
      <trkpt lat="47.08762" lon="6.32955">
        <ele>750.68394</ele>
        <time>2021-03-29T19:11:39.340Z</time>
      </trkpt>
      <trkpt lat="47.08703" lon="6.32955">
        <ele>757.375151</ele>
        <time>2021-03-29T19:12:36.911Z</time>
      </trkpt>
      <trkpt lat="47.08606" lon="6.32944">
        <ele>765.085133</ele>
        <time>2021-03-29T19:13:42.336Z</time>
      </trkpt>
      <trkpt lat="47.08603" lon="6.3296">
        <ele>765.141912</ele>
        <time>2021-03-29T19:13:48.750Z</time>
      </trkpt>
      <trkpt lat="47.08599" lon="6.32988">
        <ele>765.2374</ele>
        <time>2021-03-29T19:13:56.421Z</time>
      </trkpt>
      <trkpt lat="47.08576" lon="6.33084">
        <ele>765.580113</ele>
        <time>2021-03-29T19:14:23.078Z</time>
      </trkpt>
      <trkpt lat="47.08564" lon="6.33132">
        <ele>765.752492</ele>
        <time>2021-03-29T19:14:33.291Z</time>
      </trkpt>
      <trkpt lat="47.08563" lon="6.33137">
        <ele>765.769687</ele>
        <time>2021-03-29T19:14:34.083Z</time>
      </trkpt>
      <trkpt lat="47.08534" lon="6.33274">
        <ele>761.050853</ele>
        <time>2021-03-29T19:15:00.091Z</time>
      </trkpt>
      <trkpt lat="47.08528" lon="6.33305">
        <ele>759.849871</ele>
        <time>2021-03-29T19:15:05.701Z</time>
      </trkpt>
      <trkpt lat="47.0851" lon="6.33336">
        <ele>758.356167</ele>
        <time>2021-03-29T19:15:12.829Z</time>
      </trkpt>
      <trkpt lat="47.08502" lon="6.33376">
        <ele>756.795239</ele>
        <time>2021-03-29T19:15:20.906Z</time>
      </trkpt>
      <trkpt lat="47.08511" lon="6.33522">
        <ele>755.901255</ele>
        <time>2021-03-29T19:15:50.621Z</time>
      </trkpt>
      <trkpt lat="47.08497" lon="6.33577">
        <ele>755.855976</ele>
        <time>2021-03-29T19:16:07.746Z</time>
      </trkpt>
      <trkpt lat="47.0847" lon="6.33641">
        <ele>755.797141</ele>
        <time>2021-03-29T19:16:32.453Z</time>
      </trkpt>
      <trkpt lat="47.08471" lon="6.33663">
        <ele>756.712428</ele>
        <time>2021-03-29T19:16:39.100Z</time>
      </trkpt>
      <trkpt lat="47.0844" lon="6.33669">
        <ele>759.022616</ele>
        <time>2021-03-29T19:16:57.777Z</time>
      </trkpt>
      <trkpt lat="47.08439" lon="6.33669">
        <ele>759.063058</ele>
        <time>2021-03-29T19:16:58.317Z</time>
      </trkpt>
      <trkpt lat="47.08421" lon="6.33681">
        <ele>760.545834</ele>
        <time>2021-03-29T19:17:10.146Z</time>
      </trkpt>
      <trkpt lat="47.08413" lon="6.33712">
        <ele>762.244141</ele>
        <time>2021-03-29T19:17:26.246Z</time>
      </trkpt>
      <trkpt lat="47.08397" lon="6.33771">
        <ele>765.469016</ele>
        <time>2021-03-29T19:17:56.630Z</time>
      </trkpt>
      <trkpt lat="47.08393" lon="6.33789">
        <ele>766.451204</ele>
        <time>2021-03-29T19:18:06.439Z</time>
      </trkpt>
      <trkpt lat="47.08379" lon="6.33847">
        <ele>769.651183</ele>
        <time>2021-03-29T19:18:39.546Z</time>
      </trkpt>
      <trkpt lat="47.0836" lon="6.33914">
        <ele>774.205541</ele>
        <time>2021-03-29T19:19:16.806Z</time>
      </trkpt>
      <trkpt lat="47.08311" lon="6.34025">
        <ele>782.505319</ele>
        <time>2021-03-29T19:20:22.794Z</time>
      </trkpt>
      <trkpt lat="47.08247" lon="6.34227">
        <ele>795.586326</ele>
        <time>2021-03-29T19:22:13.277Z</time>
      </trkpt>
      <trkpt lat="47.08209" lon="6.34289">
        <ele>800.480962</ele>
        <time>2021-03-29T19:22:53.619Z</time>
      </trkpt>
      <trkpt lat="47.08186" lon="6.34309">
        <ele>801.761152</ele>
        <time>2021-03-29T19:23:11.512Z</time>
      </trkpt>
      <trkpt lat="47.08171" lon="6.34351">
        <ele>802.876727</ele>
        <time>2021-03-29T19:23:27.379Z</time>
      </trkpt>
      <trkpt lat="47.0816" lon="6.34444">
        <ele>805.13877</ele>
        <time>2021-03-29T19:23:55.458Z</time>
      </trkpt>
      <trkpt lat="47.08141" lon="6.34527">
        <ele>807.225647</ele>
        <time>2021-03-29T19:24:10.436Z</time>
      </trkpt>
      <trkpt lat="47.08126" lon="6.34574">
        <ele>805.729911</ele>
        <time>2021-03-29T19:24:16.489Z</time>
      </trkpt>
      <trkpt lat="47.08118" lon="6.34598">
        <ele>804.769368</ele>
        <time>2021-03-29T19:24:19.436Z</time>
      </trkpt>
      <trkpt lat="47.08116" lon="6.34652">
        <ele>802.773791</ele>
        <time>2021-03-29T19:24:25.240Z</time>
      </trkpt>
      <trkpt lat="47.08119" lon="6.34687">
        <ele>801.512544</ele>
        <time>2021-03-29T19:24:28.770Z</time>
      </trkpt>
      <trkpt lat="47.08123" lon="6.34733">
        <ele>799.802235</ele>
        <time>2021-03-29T19:24:33.558Z</time>
      </trkpt>
      <trkpt lat="47.08107" lon="6.34768">
        <ele>798.284701</ele>
        <time>2021-03-29T19:24:37.800Z</time>
      </trkpt>
      <trkpt lat="47.08095" lon="6.34815">
        <ele>796.740303</ele>
        <time>2021-03-29T19:24:42.913Z</time>
      </trkpt>
      <trkpt lat="47.08081" lon="6.34837">
        <ele>795.893792</ele>
        <time>2021-03-29T19:24:45.961Z</time>
      </trkpt>
      <trkpt lat="47.08046" lon="6.34853">
        <ele>794.357633</ele>
        <time>2021-03-29T19:24:51.524Z</time>
      </trkpt>
      <trkpt lat="47.07997" lon="6.34857">
        <ele>792.342608</ele>
        <time>2021-03-29T19:24:59.566Z</time>
      </trkpt>
      <trkpt lat="47.07976" lon="6.34866">
        <ele>791.448226</ele>
        <time>2021-03-29T19:25:03.746Z</time>
      </trkpt>
      <trkpt lat="47.07955" lon="6.34895">
        <ele>790.329338</ele>
        <time>2021-03-29T19:25:09.800Z</time>
      </trkpt>
      <trkpt lat="47.07952" lon="6.34941">
        <ele>791.285757</ele>
        <time>2021-03-29T19:25:19.527Z</time>
      </trkpt>
      <trkpt lat="47.07952" lon="6.35058">
        <ele>793.692311</ele>
        <time>2021-03-29T19:25:48.992Z</time>
      </trkpt>
      <trkpt lat="47.0795" lon="6.35071">
        <ele>793.963343</ele>
        <time>2021-03-29T19:25:53.814Z</time>
      </trkpt>
      <trkpt lat="47.07947" lon="6.35113">
        <ele>794.817197</ele>
        <time>2021-03-29T19:26:06.211Z</time>
      </trkpt>
      <trkpt lat="47.07943" lon="6.35147">
        <ele>795.52313</ele>
        <time>2021-03-29T19:26:16.481Z</time>
      </trkpt>
      <trkpt lat="47.07945" lon="6.35156">
        <ele>795.730511</ele>
        <time>2021-03-29T19:26:19.712Z</time>
      </trkpt>
      <trkpt lat="47.0795" lon="6.35294">
        <ele>800.946343</ele>
        <time>2021-03-29T19:26:58.830Z</time>
      </trkpt>
      <trkpt lat="47.07952" lon="6.3531">
        <ele>801.583681</ele>
        <time>2021-03-29T19:27:04.717Z</time>
      </trkpt>
      <trkpt lat="47.0796" lon="6.35314">
        <ele>802.03495</ele>
        <time>2021-03-29T19:27:07.583Z</time>
      </trkpt>
      <trkpt lat="47.0797" lon="6.35311">
        <ele>802.6136</ele>
        <time>2021-03-29T19:27:12.539Z</time>
      </trkpt>
      <trkpt lat="47.07983" lon="6.35298">
        <ele>803.457806</ele>
        <time>2021-03-29T19:27:19.863Z</time>
      </trkpt>
      <trkpt lat="47.07985" lon="6.35325">
        <ele>804.4819</ele>
        <time>2021-03-29T19:27:31.061Z</time>
      </trkpt>
      <trkpt lat="47.07978" lon="6.35352">
        <ele>805.600516</ele>
        <time>2021-03-29T19:27:43.366Z</time>
      </trkpt>
      <trkpt lat="47.07937" lon="6.35517">
        <ele>815.969102</ele>
        <time>2021-03-29T19:29:06.302Z</time>
      </trkpt>
      <trkpt lat="47.07941" lon="6.35621">
        <ele>822.293696</ele>
        <time>2021-03-29T19:30:03.950Z</time>
      </trkpt>
      <trkpt lat="47.07939" lon="6.35636">
        <ele>823.27137</ele>
        <time>2021-03-29T19:30:12.613Z</time>
      </trkpt>
      <trkpt lat="47.07967" lon="6.35719">
        <ele>829.37718</ele>
        <time>2021-03-29T19:30:59.992Z</time>
      </trkpt>
      <trkpt lat="47.08025" lon="6.35892">
        <ele>842.079035</ele>
        <time>2021-03-29T19:32:37.960Z</time>
      </trkpt>
      <trkpt lat="47.08037" lon="6.35974">
        <ele>847.629256</ele>
        <time>2021-03-29T19:33:21.998Z</time>
      </trkpt>
      <trkpt lat="47.08036" lon="6.36026">
        <ele>851.039686</ele>
        <time>2021-03-29T19:33:49.181Z</time>
      </trkpt>
      <trkpt lat="47.08013" lon="6.3615">
        <ele>859.065048</ele>
        <time>2021-03-29T19:34:55.672Z</time>
      </trkpt>
      <trkpt lat="47.08019" lon="6.3618">
        <ele>860.811336</ele>
        <time>2021-03-29T19:35:09.424Z</time>
      </trkpt>
      <trkpt lat="47.08004" lon="6.36276">
        <ele>866.359461</ele>
        <time>2021-03-29T19:35:48.040Z</time>
      </trkpt>
      <trkpt lat="47.08007" lon="6.36327">
        <ele>869.209469</ele>
        <time>2021-03-29T19:36:07.078Z</time>
      </trkpt>
      <trkpt lat="47.08017" lon="6.36369">
        <ele>871.41417</ele>
        <time>2021-03-29T19:36:21.676Z</time>
      </trkpt>
      <trkpt lat="47.08018" lon="6.36375">
        <ele>871.598565</ele>
        <time>2021-03-29T19:36:24.149Z</time>
      </trkpt>
      <trkpt lat="47.08022" lon="6.36398">
        <ele>872.262389</ele>
        <time>2021-03-29T19:36:30.633Z</time>
      </trkpt>
      <trkpt lat="47.08019" lon="6.36449">
        <ele>873.742615</ele>
        <time>2021-03-29T19:36:44.757Z</time>
      </trkpt>
      <trkpt lat="47.08004" lon="6.36494">
        <ele>875.153688</ele>
        <time>2021-03-29T19:36:57.626Z</time>
      </trkpt>
      <trkpt lat="47.08004" lon="6.36502">
        <ele>875.379267</ele>
        <time>2021-03-29T19:37:00.424Z</time>
      </trkpt>
      <trkpt lat="47.08003" lon="6.36513">
        <ele>875.695852</ele>
        <time>2021-03-29T19:37:03.494Z</time>
      </trkpt>
      <trkpt lat="47.08018" lon="6.36548">
        <ele>876.84571</ele>
        <time>2021-03-29T19:37:13.703Z</time>
      </trkpt>
      <trkpt lat="47.0812" lon="6.36597">
        <ele>880.137489</ele>
        <time>2021-03-29T19:37:50.070Z</time>
      </trkpt>
      <trkpt lat="47.0819" lon="6.36686">
        <ele>882.319829</ele>
        <time>2021-03-29T19:38:18.880Z</time>
      </trkpt>
      <trkpt lat="47.08261" lon="6.36729">
        <ele>884.37392</ele>
        <time>2021-03-29T19:38:44.183Z</time>
      </trkpt>
      <trkpt lat="47.08281" lon="6.36756">
        <ele>885.122493</ele>
        <time>2021-03-29T19:38:53.420Z</time>
      </trkpt>
      <trkpt lat="47.0831" lon="6.36833">
        <ele>886.831098</ele>
        <time>2021-03-29T19:39:14.799Z</time>
      </trkpt>
      <trkpt lat="47.08344" lon="6.36957">
        <ele>889.373834</ele>
        <time>2021-03-29T19:39:47.229Z</time>
      </trkpt>
      <trkpt lat="47.084" lon="6.37107">
        <ele>892.587067</ele>
        <time>2021-03-29T19:40:26.508Z</time>
      </trkpt>
      <trkpt lat="47.08413" lon="6.37183">
        <ele>893.809426</ele>
        <time>2021-03-29T19:40:44.416Z</time>
      </trkpt>
      <trkpt lat="47.08422" lon="6.37213">
        <ele>894.294031</ele>
        <time>2021-03-29T19:40:51.936Z</time>
      </trkpt>
      <trkpt lat="47.08455" lon="6.37273">
        <ele>895.429898</ele>
        <time>2021-03-29T19:41:08.769Z</time>
      </trkpt>
      <trkpt lat="47.08463" lon="6.37284">
        <ele>895.67778</ele>
        <time>2021-03-29T19:41:12.447Z</time>
      </trkpt>
      <trkpt lat="47.08506" lon="6.37284">
        <ele>896.595779</ele>
        <time>2021-03-29T19:41:25.454Z</time>
      </trkpt>
      <trkpt lat="47.08571" lon="6.37221">
        <ele>897.067525</ele>
        <time>2021-03-29T19:41:46.603Z</time>
      </trkpt>
      <trkpt lat="47.08636" lon="6.37158">
        <ele>897.383921</ele>
        <time>2021-03-29T19:42:05.157Z</time>
      </trkpt>
      <trkpt lat="47.08713" lon="6.37062">
        <ele>896.326673</ele>
        <time>2021-03-29T19:42:24.253Z</time>
      </trkpt>
      <trkpt lat="47.08763" lon="6.37012">
        <ele>895.284347</ele>
        <time>2021-03-29T19:42:34.726Z</time>
      </trkpt>
      <trkpt lat="47.08804" lon="6.36989">
        <ele>894.507867</ele>
        <time>2021-03-29T19:42:42.371Z</time>
      </trkpt>
      <trkpt lat="47.0883" lon="6.36982">
        <ele>893.920689</ele>
        <time>2021-03-29T19:42:46.983Z</time>
      </trkpt>
      <trkpt lat="47.08844" lon="6.3698">
        <ele>893.592755</ele>
        <time>2021-03-29T19:42:49.258Z</time>
      </trkpt>
      <trkpt lat="47.08919" lon="6.36984">
        <ele>891.797124</ele>
        <time>2021-03-29T19:43:02.270Z</time>
      </trkpt>
      <trkpt lat="47.0905" lon="6.36972">
        <ele>887.541602</ele>
        <time>2021-03-29T19:43:24.447Z</time>
      </trkpt>
      <trkpt lat="47.09091" lon="6.36966">
        <ele>885.812271</ele>
        <time>2021-03-29T19:43:31.088Z</time>
      </trkpt>
      <trkpt lat="47.09108" lon="6.36964">
        <ele>885.084731</ele>
        <time>2021-03-29T19:43:33.549Z</time>
      </trkpt>
      <trkpt lat="47.09137" lon="6.36961">
        <ele>883.851621</ele>
        <time>2021-03-29T19:43:37.860Z</time>
      </trkpt>
      <trkpt lat="47.09211" lon="6.36969">
        <ele>881.075234</ele>
        <time>2021-03-29T19:43:48.815Z</time>
      </trkpt>
      <trkpt lat="47.0922" lon="6.36966">
        <ele>880.793956</ele>
        <time>2021-03-29T19:43:50.110Z</time>
      </trkpt>
      <trkpt lat="47.0923" lon="6.36963">
        <ele>880.43175</ele>
        <time>2021-03-29T19:43:51.869Z</time>
      </trkpt>
      <trkpt lat="47.09251" lon="6.36953">
        <ele>879.708913</ele>
        <time>2021-03-29T19:43:55.137Z</time>
      </trkpt>
      <trkpt lat="47.0926" lon="6.36949">
        <ele>879.382619</ele>
        <time>2021-03-29T19:43:56.769Z</time>
      </trkpt>
      <trkpt lat="47.09269" lon="6.36944">
        <ele>879.088296</ele>
        <time>2021-03-29T19:43:58.177Z</time>
      </trkpt>
      <trkpt lat="47.093" lon="6.3694">
        <ele>878.039266</ele>
        <time>2021-03-29T19:44:03.670Z</time>
      </trkpt>
      <trkpt lat="47.09337" lon="6.36947">
        <ele>876.80872</ele>
        <time>2021-03-29T19:44:10.428Z</time>
      </trkpt>
      <trkpt lat="47.09372" lon="6.3698">
        <ele>877.250993</ele>
        <time>2021-03-29T19:44:24.899Z</time>
      </trkpt>
      <trkpt lat="47.09414" lon="6.37024">
        <ele>878.494348</ele>
        <time>2021-03-29T19:44:47.290Z</time>
      </trkpt>
      <trkpt lat="47.09424" lon="6.37059">
        <ele>879.113771</ele>
        <time>2021-03-29T19:45:02.014Z</time>
      </trkpt>
      <trkpt lat="47.09452" lon="6.37234">
        <ele>882.265837</ele>
        <time>2021-03-29T19:46:07.648Z</time>
      </trkpt>
      <trkpt lat="47.09457" lon="6.37264">
        <ele>882.864105</ele>
        <time>2021-03-29T19:46:18.806Z</time>
      </trkpt>
      <trkpt lat="47.09476" lon="6.3733">
        <ele>884.231255</ele>
        <time>2021-03-29T19:46:41.629Z</time>
      </trkpt>
      <trkpt lat="47.09504" lon="6.37423">
        <ele>885.940966</ele>
        <time>2021-03-29T19:47:12.412Z</time>
      </trkpt>
      <trkpt lat="47.09507" lon="6.375">
        <ele>886.287772</ele>
        <time>2021-03-29T19:47:25.941Z</time>
      </trkpt>
      <trkpt lat="47.09535" lon="6.37666">
        <ele>887.066827</ele>
        <time>2021-03-29T19:47:51.966Z</time>
      </trkpt>
      <trkpt lat="47.09565" lon="6.37796">
        <ele>889.481762</ele>
        <time>2021-03-29T19:48:18.512Z</time>
      </trkpt>
      <trkpt lat="47.09592" lon="6.37911">
        <ele>891.624006</ele>
        <time>2021-03-29T19:48:50.083Z</time>
      </trkpt>
      <trkpt lat="47.096" lon="6.37946">
        <ele>892.450185</ele>
        <time>2021-03-29T19:49:00.148Z</time>
      </trkpt>
      <trkpt lat="47.09615" lon="6.38025">
        <ele>894.335102</ele>
        <time>2021-03-29T19:49:23.174Z</time>
      </trkpt>
      <trkpt lat="47.09639" lon="6.38208">
        <ele>897.66889</ele>
        <time>2021-03-29T19:50:06.524Z</time>
      </trkpt>
      <trkpt lat="47.09658" lon="6.38304">
        <ele>897.230141</ele>
        <time>2021-03-29T19:50:20.136Z</time>
      </trkpt>
      <trkpt lat="47.09667" lon="6.3836">
        <ele>896.980952</ele>
        <time>2021-03-29T19:50:26.945Z</time>
      </trkpt>
      <trkpt lat="47.09667" lon="6.3836">
        <ele>896.980952</ele>
        <time>2021-03-29T19:50:26.971Z</time>
      </trkpt>
      <trkpt lat="47.09667" lon="6.3836">
        <ele>896.980952</ele>
        <time>2021-03-29T19:50:26.971Z</time>
      </trkpt>
      <trkpt lat="47.09682" lon="6.38445">
        <ele>896.653098</ele>
        <time>2021-03-29T19:50:42.558Z</time>
      </trkpt>
      <trkpt lat="47.09697" lon="6.3853">
        <ele>896.574464</ele>
        <time>2021-03-29T19:50:58.155Z</time>
      </trkpt>
      <trkpt lat="47.09711" lon="6.38631">
        <ele>896.482661</ele>
        <time>2021-03-29T19:51:24.584Z</time>
      </trkpt>
      <trkpt lat="47.09718" lon="6.38682">
        <ele>896.436878</ele>
        <time>2021-03-29T19:51:39.623Z</time>
      </trkpt>
      <trkpt lat="47.09747" lon="6.38838">
        <ele>899.567819</ele>
        <time>2021-03-29T19:52:34.485Z</time>
      </trkpt>
      <trkpt lat="47.09747" lon="6.38942">
        <ele>901.652859</ele>
        <time>2021-03-29T19:53:11.243Z</time>
      </trkpt>
      <trkpt lat="47.0973" lon="6.39014">
        <ele>902.02892</ele>
        <time>2021-03-29T19:53:36.309Z</time>
      </trkpt>
      <trkpt lat="47.09751" lon="6.39176">
        <ele>902.74411</ele>
        <time>2021-03-29T19:54:19.765Z</time>
      </trkpt>
      <trkpt lat="47.09752" lon="6.39258">
        <ele>901.281846</ele>
        <time>2021-03-29T19:54:37.039Z</time>
      </trkpt>
      <trkpt lat="47.09797" lon="6.39478">
        <ele>894.60423</ele>
        <time>2021-03-29T19:55:20.377Z</time>
      </trkpt>
      <trkpt lat="47.09809" lon="6.39693">
        <ele>886.26734</ele>
        <time>2021-03-29T19:55:59.606Z</time>
      </trkpt>
      <trkpt lat="47.09818" lon="6.39739">
        <ele>884.539715</ele>
        <time>2021-03-29T19:56:08.613Z</time>
      </trkpt>
      <trkpt lat="47.09819" lon="6.39741">
        <ele>884.481883</ele>
        <time>2021-03-29T19:56:08.920Z</time>
      </trkpt>
      <trkpt lat="47.09819" lon="6.3978">
        <ele>883.23909</ele>
        <time>2021-03-29T19:56:16.244Z</time>
      </trkpt>
      <trkpt lat="47.09837" lon="6.39876">
        <ele>880.057882</ele>
        <time>2021-03-29T19:56:35.129Z</time>
      </trkpt>
      <trkpt lat="47.09883" lon="6.39989">
        <ele>875.664638</ele>
        <time>2021-03-29T19:57:00.550Z</time>
      </trkpt>
      <trkpt lat="47.09884" lon="6.40008">
        <ele>874.936962</ele>
        <time>2021-03-29T19:57:04.258Z</time>
      </trkpt>
      <trkpt lat="47.09892" lon="6.40014">
        <ele>874.426706</ele>
        <time>2021-03-29T19:57:06.788Z</time>
      </trkpt>
      <trkpt lat="47.09897" lon="6.40027">
        <ele>873.877456</ele>
        <time>2021-03-29T19:57:09.505Z</time>
      </trkpt>
      <trkpt lat="47.09895" lon="6.40057">
        <ele>872.761033</ele>
        <time>2021-03-29T19:57:15.059Z</time>
      </trkpt>
      <trkpt lat="47.09898" lon="6.40086">
        <ele>871.632886</ele>
        <time>2021-03-29T19:57:20.562Z</time>
      </trkpt>
      <trkpt lat="47.09895" lon="6.40117">
        <ele>870.448942</ele>
        <time>2021-03-29T19:57:26.342Z</time>
      </trkpt>
      <trkpt lat="47.099" lon="6.40162">
        <ele>868.734108</ele>
        <time>2021-03-29T19:57:34.586Z</time>
      </trkpt>
      <trkpt lat="47.0992" lon="6.40216">
        <ele>866.250739</ele>
        <time>2021-03-29T19:57:45.691Z</time>
      </trkpt>
      <trkpt lat="47.09936" lon="6.40277">
        <ele>862.946839</ele>
        <time>2021-03-29T19:57:57.088Z</time>
      </trkpt>
      <trkpt lat="47.09989" lon="6.40347">
        <ele>857.534283</ele>
        <time>2021-03-29T19:58:15.444Z</time>
      </trkpt>
      <trkpt lat="47.10088" lon="6.40513">
        <ele>845.763684</ele>
        <time>2021-03-29T19:58:53.645Z</time>
      </trkpt>
      <trkpt lat="47.10118" lon="6.40542">
        <ele>842.883643</ele>
        <time>2021-03-29T19:59:02.776Z</time>
      </trkpt>
      <trkpt lat="47.10137" lon="6.40553">
        <ele>841.239273</ele>
        <time>2021-03-29T19:59:07.912Z</time>
      </trkpt>
      <trkpt lat="47.10207" lon="6.40568">
        <ele>835.919879</ele>
        <time>2021-03-29T19:59:25.789Z</time>
      </trkpt>
      <trkpt lat="47.10232" lon="6.40585">
        <ele>833.948962</ele>
        <time>2021-03-29T19:59:32.890Z</time>
      </trkpt>
      <trkpt lat="47.10248" lon="6.40625">
        <ele>831.661511</ele>
        <time>2021-03-29T19:59:41.114Z</time>
      </trkpt>
      <trkpt lat="47.10266" lon="6.40632">
        <ele>830.348657</ele>
        <time>2021-03-29T19:59:45.784Z</time>
      </trkpt>
      <trkpt lat="47.1033" lon="6.40751">
        <ele>823.272318</ele>
        <time>2021-03-29T20:00:12.967Z</time>
      </trkpt>
      <trkpt lat="47.10362" lon="6.40822">
        <ele>819.622736</ele>
        <time>2021-03-29T20:00:28.455Z</time>
      </trkpt>
      <trkpt lat="47.1047" lon="6.40961">
        <ele>809.629917</ele>
        <time>2021-03-29T20:01:06.471Z</time>
      </trkpt>
      <trkpt lat="47.10537" lon="6.41095">
        <ele>800.732836</ele>
        <time>2021-03-29T20:01:35.103Z</time>
      </trkpt>
      <trkpt lat="47.10598" lon="6.4123">
        <ele>789.168844</ele>
        <time>2021-03-29T20:02:01.960Z</time>
      </trkpt>
      <trkpt lat="47.10689" lon="6.41329">
        <ele>776.904873</ele>
        <time>2021-03-29T20:02:29.258Z</time>
      </trkpt>
      <trkpt lat="47.10712" lon="6.4137">
        <ele>772.795224</ele>
        <time>2021-03-29T20:02:37.914Z</time>
      </trkpt>
      <trkpt lat="47.10733" lon="6.41474">
        <ele>764.527815</ele>
        <time>2021-03-29T20:02:55.528Z</time>
      </trkpt>
      <trkpt lat="47.10739" lon="6.41496">
        <ele>762.627372</ele>
        <time>2021-03-29T20:02:59.478Z</time>
      </trkpt>
      <trkpt lat="47.10749" lon="6.4153">
        <ele>760.05359</ele>
        <time>2021-03-29T20:03:03.191Z</time>
      </trkpt>
      <trkpt lat="47.1075" lon="6.41537">
        <ele>759.668018</ele>
        <time>2021-03-29T20:03:03.805Z</time>
      </trkpt>
      <trkpt lat="47.10751" lon="6.41544">
        <ele>759.234728</ele>
        <time>2021-03-29T20:03:04.499Z</time>
      </trkpt>
      <trkpt lat="47.10755" lon="6.41564">
        <ele>758.020642</ele>
        <time>2021-03-29T20:03:06.574Z</time>
      </trkpt>
      <trkpt lat="47.10759" lon="6.41583">
        <ele>756.8644</ele>
        <time>2021-03-29T20:03:08.532Z</time>
      </trkpt>
      <trkpt lat="47.10761" lon="6.41591">
        <ele>756.34186</ele>
        <time>2021-03-29T20:03:09.365Z</time>
      </trkpt>
      <trkpt lat="47.10772" lon="6.41622">
        <ele>754.298271</ele>
        <time>2021-03-29T20:03:12.915Z</time>
      </trkpt>
      <trkpt lat="47.10778" lon="6.41643">
        <ele>752.95554</ele>
        <time>2021-03-29T20:03:15.065Z</time>
      </trkpt>
      <trkpt lat="47.10782" lon="6.41657">
        <ele>752.099802</ele>
        <time>2021-03-29T20:03:16.553Z</time>
      </trkpt>
      <trkpt lat="47.10787" lon="6.41684">
        <ele>750.419964</ele>
        <time>2021-03-29T20:03:19.404Z</time>
      </trkpt>
      <trkpt lat="47.10788" lon="6.41697">
        <ele>749.634267</ele>
        <time>2021-03-29T20:03:20.693Z</time>
      </trkpt>
      <trkpt lat="47.10801" lon="6.41714">
        <ele>748.193411</ele>
        <time>2021-03-29T20:03:23.344Z</time>
      </trkpt>
      <trkpt lat="47.10815" lon="6.4173">
        <ele>746.634649</ele>
        <time>2021-03-29T20:03:25.991Z</time>
      </trkpt>
      <trkpt lat="47.10822" lon="6.41726">
        <ele>745.970576</ele>
        <time>2021-03-29T20:03:27.122Z</time>
      </trkpt>
      <trkpt lat="47.10848" lon="6.41717">
        <ele>744.349772</ele>
        <time>2021-03-29T20:03:31.089Z</time>
      </trkpt>
      <trkpt lat="47.10871" lon="6.41717">
        <ele>743.087518</ele>
        <time>2021-03-29T20:03:34.701Z</time>
      </trkpt>
      <trkpt lat="47.10878" lon="6.41719">
        <ele>742.753339</ele>
        <time>2021-03-29T20:03:35.582Z</time>
      </trkpt>
      <trkpt lat="47.10883" lon="6.41721">
        <ele>742.437709</ele>
        <time>2021-03-29T20:03:36.398Z</time>
      </trkpt>
      <trkpt lat="47.10965" lon="6.41768">
        <ele>737.721154</ele>
        <time>2021-03-29T20:03:49.653Z</time>
      </trkpt>
      <trkpt lat="47.10986" lon="6.4178">
        <ele>736.49959</ele>
        <time>2021-03-29T20:03:53.011Z</time>
      </trkpt>
      <trkpt lat="47.10992" lon="6.41786">
        <ele>736.111812</ele>
        <time>2021-03-29T20:03:54.141Z</time>
      </trkpt>
      <trkpt lat="47.11005" lon="6.41804">
        <ele>735.388503</ele>
        <time>2021-03-29T20:03:57.032Z</time>
      </trkpt>
      <trkpt lat="47.11008" lon="6.41811">
        <ele>735.174211</ele>
        <time>2021-03-29T20:03:57.849Z</time>
      </trkpt>
      <trkpt lat="47.11037" lon="6.41873">
        <ele>733.343408</ele>
        <time>2021-03-29T20:04:05.759Z</time>
      </trkpt>
      <trkpt lat="47.11047" lon="6.41891">
        <ele>732.761057</ele>
        <time>2021-03-29T20:04:08.415Z</time>
      </trkpt>
      <trkpt lat="47.11052" lon="6.41895">
        <ele>732.556074</ele>
        <time>2021-03-29T20:04:09.230Z</time>
      </trkpt>
      <trkpt lat="47.11059" lon="6.41898">
        <ele>732.322326</ele>
        <time>2021-03-29T20:04:10.175Z</time>
      </trkpt>
      <trkpt lat="47.11108" lon="6.41909">
        <ele>730.539778</ele>
        <time>2021-03-29T20:04:18.199Z</time>
      </trkpt>
      <trkpt lat="47.11148" lon="6.41908">
        <ele>729.367832</ele>
        <time>2021-03-29T20:04:25.417Z</time>
      </trkpt>
      <trkpt lat="47.11205" lon="6.41903">
        <ele>729.396381</ele>
        <time>2021-03-29T20:04:36.465Z</time>
      </trkpt>
      <trkpt lat="47.11223" lon="6.419">
        <ele>729.405382</ele>
        <time>2021-03-29T20:04:41.463Z</time>
      </trkpt>
      <trkpt lat="47.11231" lon="6.41899">
        <ele>729.409524</ele>
        <time>2021-03-29T20:04:43.609Z</time>
      </trkpt>
      <trkpt lat="47.11248" lon="6.41895">
        <ele>729.418029</ele>
        <time>2021-03-29T20:04:47.489Z</time>
      </trkpt>
      <trkpt lat="47.11254" lon="6.41891">
        <ele>729.421022</ele>
        <time>2021-03-29T20:04:49.329Z</time>
      </trkpt>
      <trkpt lat="47.11259" lon="6.41887">
        <ele>729.424213</ele>
        <time>2021-03-29T20:04:51.230Z</time>
      </trkpt>
      <trkpt lat="47.11273" lon="6.4187">
        <ele>729.433177</ele>
        <time>2021-03-29T20:04:55.323Z</time>
      </trkpt>
      <trkpt lat="47.1128" lon="6.41858">
        <ele>729.438369</ele>
        <time>2021-03-29T20:04:58.337Z</time>
      </trkpt>
      <trkpt lat="47.11282" lon="6.41853">
        <ele>729.4403</ele>
        <time>2021-03-29T20:04:59.515Z</time>
      </trkpt>
      <trkpt lat="47.11294" lon="6.41824">
        <ele>729.451738</ele>
        <time>2021-03-29T20:05:05.174Z</time>
      </trkpt>
      <trkpt lat="47.11322" lon="6.41756">
        <ele>729.303466</ele>
        <time>2021-03-29T20:05:20.819Z</time>
      </trkpt>
      <trkpt lat="47.11375" lon="6.41642">
        <ele>729.02255</ele>
        <time>2021-03-29T20:05:41.322Z</time>
      </trkpt>
      <trkpt lat="47.11452" lon="6.41554">
        <ele>727.217874</ele>
        <time>2021-03-29T20:05:57.804Z</time>
      </trkpt>
      <trkpt lat="47.11457" lon="6.41545">
        <ele>727.011347</ele>
        <time>2021-03-29T20:05:58.909Z</time>
      </trkpt>
      <trkpt lat="47.11462" lon="6.41533">
        <ele>726.747959</ele>
        <time>2021-03-29T20:06:00.654Z</time>
      </trkpt>
      <trkpt lat="47.11466" lon="6.41536">
        <ele>726.623531</ele>
        <time>2021-03-29T20:06:01.349Z</time>
      </trkpt>
      <trkpt lat="47.11474" lon="6.41542">
        <ele>726.359023</ele>
        <time>2021-03-29T20:06:03.101Z</time>
      </trkpt>
      <trkpt lat="47.11641" lon="6.41498">
        <ele>723.207342</ele>
        <time>2021-03-29T20:06:32.686Z</time>
      </trkpt>
      <trkpt lat="47.11643" lon="6.41497">
        <ele>723.181739</ele>
        <time>2021-03-29T20:06:33.228Z</time>
      </trkpt>
      <trkpt lat="47.11659" lon="6.41488">
        <ele>723.016796</ele>
        <time>2021-03-29T20:06:37.050Z</time>
      </trkpt>
      <trkpt lat="47.11705" lon="6.41441">
        <ele>722.47367</ele>
        <time>2021-03-29T20:06:50.281Z</time>
      </trkpt>
      <trkpt lat="47.11836" lon="6.41332">
        <ele>724.425271</ele>
        <time>2021-03-29T20:07:35.053Z</time>
      </trkpt>
      <trkpt lat="47.11957" lon="6.41283">
        <ele>726.973158</ele>
        <time>2021-03-29T20:08:14.508Z</time>
      </trkpt>
      <trkpt lat="47.12046" lon="6.41217">
        <ele>729.244552</ele>
        <time>2021-03-29T20:08:47.539Z</time>
      </trkpt>
      <trkpt lat="47.12111" lon="6.4115">
        <ele>731.196336</ele>
        <time>2021-03-29T20:09:13.681Z</time>
      </trkpt>
      <trkpt lat="47.12127" lon="6.41136">
        <ele>731.685317</ele>
        <time>2021-03-29T20:09:20.412Z</time>
      </trkpt>
      <trkpt lat="47.1221" lon="6.41065">
        <ele>734.054069</ele>
        <time>2021-03-29T20:09:51.861Z</time>
      </trkpt>
      <trkpt lat="47.12273" lon="6.40967">
        <ele>736.225606</ele>
        <time>2021-03-29T20:10:21.256Z</time>
      </trkpt>
      <trkpt lat="47.12344" lon="6.40925">
        <ele>738.036111</ele>
        <time>2021-03-29T20:10:46.378Z</time>
      </trkpt>
      <trkpt lat="47.12388" lon="6.40873">
        <ele>739.300786</ele>
        <time>2021-03-29T20:11:05.432Z</time>
      </trkpt>
      <trkpt lat="47.1244" lon="6.40802">
        <ele>740.878242</ele>
        <time>2021-03-29T20:11:28.783Z</time>
      </trkpt>
      <trkpt lat="47.12491" lon="6.40741">
        <ele>742.125892</ele>
        <time>2021-03-29T20:11:49.713Z</time>
      </trkpt>
      <trkpt lat="47.12584" lon="6.40687">
        <ele>742.140094</ele>
        <time>2021-03-29T20:12:15.524Z</time>
      </trkpt>
      <trkpt lat="47.12617" lon="6.40657">
        <ele>742.145611</ele>
        <time>2021-03-29T20:12:23.588Z</time>
      </trkpt>
      <trkpt lat="47.12648" lon="6.40637">
        <ele>742.046849</ele>
        <time>2021-03-29T20:12:30.230Z</time>
      </trkpt>
      <trkpt lat="47.12684" lon="6.40637">
        <ele>740.921757</ele>
        <time>2021-03-29T20:12:36.505Z</time>
      </trkpt>
      <trkpt lat="47.1276" lon="6.40644">
        <ele>738.519192</ele>
        <time>2021-03-29T20:12:49.456Z</time>
      </trkpt>
      <trkpt lat="47.12788" lon="6.40638">
        <ele>737.622114</ele>
        <time>2021-03-29T20:12:54.149Z</time>
      </trkpt>
      <trkpt lat="47.12814" lon="6.40626">
        <ele>736.785613</ele>
        <time>2021-03-29T20:12:58.567Z</time>
      </trkpt>
      <trkpt lat="47.1282" lon="6.40626">
        <ele>736.583817</ele>
        <time>2021-03-29T20:12:59.545Z</time>
      </trkpt>
      <trkpt lat="47.12944" lon="6.40571">
        <ele>732.255134</ele>
        <time>2021-03-29T20:13:21.200Z</time>
      </trkpt>
      <trkpt lat="47.12976" lon="6.40531">
        <ele>730.835828</ele>
        <time>2021-03-29T20:13:28.418Z</time>
      </trkpt>
      <trkpt lat="47.13026" lon="6.40526">
        <ele>730.143194</ele>
        <time>2021-03-29T20:13:37.657Z</time>
      </trkpt>
      <trkpt lat="47.13051" lon="6.40511">
        <ele>729.928127</ele>
        <time>2021-03-29T20:13:42.751Z</time>
      </trkpt>
      <trkpt lat="47.13113" lon="6.40454">
        <ele>729.342394</ele>
        <time>2021-03-29T20:13:57.600Z</time>
      </trkpt>
      <trkpt lat="47.131" lon="6.40397">
        <ele>729.013373</ele>
        <time>2021-03-29T20:14:08.417Z</time>
      </trkpt>
      <trkpt lat="47.13072" lon="6.40249">
        <ele>731.460371</ele>
        <time>2021-03-29T20:14:40.899Z</time>
      </trkpt>
      <trkpt lat="47.13075" lon="6.40225">
        <ele>731.839698</ele>
        <time>2021-03-29T20:14:46.310Z</time>
      </trkpt>
      <trkpt lat="47.1308" lon="6.40207">
        <ele>732.171976</ele>
        <time>2021-03-29T20:14:51.666Z</time>
      </trkpt>
      <trkpt lat="47.13095" lon="6.40173">
        <ele>732.815531</ele>
        <time>2021-03-29T20:15:01.079Z</time>
      </trkpt>
      <trkpt lat="47.13137" lon="6.40123">
        <ele>734.678512</ele>
        <time>2021-03-29T20:15:21.617Z</time>
      </trkpt>
      <trkpt lat="47.13155" lon="6.40088">
        <ele>735.901935</ele>
        <time>2021-03-29T20:15:33.663Z</time>
      </trkpt>
      <trkpt lat="47.1317" lon="6.40042">
        <ele>737.335578</ele>
        <time>2021-03-29T20:15:48.135Z</time>
      </trkpt>
      <trkpt lat="47.13181" lon="6.39985">
        <ele>738.962212</ele>
        <time>2021-03-29T20:16:03.399Z</time>
      </trkpt>
      <trkpt lat="47.13187" lon="6.39995">
        <ele>739.326364</ele>
        <time>2021-03-29T20:16:08.786Z</time>
      </trkpt>
      <trkpt lat="47.13215" lon="6.39995">
        <ele>740.46008</ele>
        <time>2021-03-29T20:16:23.039Z</time>
      </trkpt>
      <trkpt lat="47.13291" lon="6.39958">
        <ele>743.551257</ele>
        <time>2021-03-29T20:17:07.685Z</time>
      </trkpt>
      <trkpt lat="47.13364" lon="6.39871">
        <ele>747.160055</ele>
        <time>2021-03-29T20:17:56.604Z</time>
      </trkpt>
      <trkpt lat="47.13386" lon="6.39858">
        <ele>747.632358</ele>
        <time>2021-03-29T20:18:08.441Z</time>
      </trkpt>
      <trkpt lat="47.13444" lon="6.39825">
        <ele>748.203119</ele>
        <time>2021-03-29T20:18:36.806Z</time>
      </trkpt>
      <trkpt lat="47.13542" lon="6.3975">
        <ele>748.861939</ele>
        <time>2021-03-29T20:19:18.302Z</time>
      </trkpt>
      <trkpt lat="47.13606" lon="6.3967">
        <ele>746.02872</ele>
        <time>2021-03-29T20:19:43.612Z</time>
      </trkpt>
      <trkpt lat="47.13621" lon="6.39633">
        <ele>745.062889</ele>
        <time>2021-03-29T20:19:51.664Z</time>
      </trkpt>
      <trkpt lat="47.13624" lon="6.39604">
        <ele>744.376102</ele>
        <time>2021-03-29T20:19:57.337Z</time>
      </trkpt>
      <trkpt lat="47.1361" lon="6.3952">
        <ele>742.177732</ele>
        <time>2021-03-29T20:20:13.653Z</time>
      </trkpt>
      <trkpt lat="47.13597" lon="6.39504">
        <ele>741.395283</ele>
        <time>2021-03-29T20:20:18.281Z</time>
      </trkpt>
      <trkpt lat="47.13609" lon="6.39509">
        <ele>740.813639</ele>
        <time>2021-03-29T20:20:20.348Z</time>
      </trkpt>
      <trkpt lat="47.13645" lon="6.39522">
        <ele>739.169525</ele>
        <time>2021-03-29T20:20:25.985Z</time>
      </trkpt>
      <trkpt lat="47.1367" lon="6.39523">
        <ele>738.037806</ele>
        <time>2021-03-29T20:20:29.967Z</time>
      </trkpt>
      <trkpt lat="47.13725" lon="6.39508">
        <ele>735.556017</ele>
        <time>2021-03-29T20:20:39.084Z</time>
      </trkpt>
      <trkpt lat="47.13788" lon="6.39488">
        <ele>734.759591</ele>
        <time>2021-03-29T20:20:50.734Z</time>
      </trkpt>
      <trkpt lat="47.13813" lon="6.39482">
        <ele>734.631926</ele>
        <time>2021-03-29T20:20:56.255Z</time>
      </trkpt>
      <trkpt lat="47.13821" lon="6.39482">
        <ele>734.593053</ele>
        <time>2021-03-29T20:20:57.825Z</time>
      </trkpt>
      <trkpt lat="47.13825" lon="6.39494">
        <ele>734.549101</ele>
        <time>2021-03-29T20:20:59.923Z</time>
      </trkpt>
      <trkpt lat="47.13856" lon="6.39747">
        <ele>734.35995</ele>
        <time>2021-03-29T20:21:47.473Z</time>
      </trkpt>
      <trkpt lat="47.13867" lon="6.39813">
        <ele>734.478894</ele>
        <time>2021-03-29T20:21:58.826Z</time>
      </trkpt>
      <trkpt lat="47.13878" lon="6.39808">
        <ele>734.509533</ele>
        <time>2021-03-29T20:22:01.161Z</time>
      </trkpt>
      <trkpt lat="47.13899" lon="6.39802">
        <ele>734.564886</ele>
        <time>2021-03-29T20:22:05.830Z</time>
      </trkpt>
      <trkpt lat="47.13906" lon="6.39799">
        <ele>734.58244</ele>
        <time>2021-03-29T20:22:07.191Z</time>
      </trkpt>
      <trkpt lat="47.13912" lon="6.39799">
        <ele>734.565014</ele>
        <time>2021-03-29T20:22:08.367Z</time>
      </trkpt>
      <trkpt lat="47.13918" lon="6.39799">
        <ele>734.486264</ele>
        <time>2021-03-29T20:22:09.608Z</time>
      </trkpt>
      <trkpt lat="47.13917" lon="6.39792">
        <ele>734.419645</ele>
        <time>2021-03-29T20:22:10.570Z</time>
      </trkpt>
      <trkpt lat="47.13892" lon="6.3972">
        <ele>733.734142</ele>
        <time>2021-03-29T20:22:21.262Z</time>
      </trkpt>
      <trkpt lat="47.13868" lon="6.39565">
        <ele>732.385964</ele>
        <time>2021-03-29T20:22:41.878Z</time>
      </trkpt>
      <trkpt lat="47.13871" lon="6.39551">
        <ele>732.384722</ele>
        <time>2021-03-29T20:22:45.474Z</time>
      </trkpt>
      <trkpt lat="47.13907" lon="6.39523">
        <ele>732.615167</ele>
        <time>2021-03-29T20:23:00.203Z</time>
      </trkpt>
      <trkpt lat="47.13916" lon="6.39517">
        <ele>732.670487</ele>
        <time>2021-03-29T20:23:03.839Z</time>
      </trkpt>
      <trkpt lat="47.13957" lon="6.39492">
        <ele>732.917397</ele>
        <time>2021-03-29T20:23:20.531Z</time>
      </trkpt>
      <trkpt lat="47.13983" lon="6.3948">
        <ele>733.068101</ele>
        <time>2021-03-29T20:23:31.656Z</time>
      </trkpt>
      <trkpt lat="47.14048" lon="6.39487">
        <ele>733.856971</ele>
        <time>2021-03-29T20:24:00.848Z</time>
      </trkpt>
      <trkpt lat="47.141" lon="6.39508">
        <ele>735.71224</ele>
        <time>2021-03-29T20:24:26.566Z</time>
      </trkpt>
      <trkpt lat="47.1411" lon="6.39513">
        <ele>736.066775</ele>
        <time>2021-03-29T20:24:31.666Z</time>
      </trkpt>
      <trkpt lat="47.14166" lon="6.39506">
        <ele>738.020887</ele>
        <time>2021-03-29T20:25:00.419Z</time>
      </trkpt>
      <trkpt lat="47.14225" lon="6.39494">
        <ele>740.605679</ele>
        <time>2021-03-29T20:25:33.844Z</time>
      </trkpt>
      <trkpt lat="47.14291" lon="6.39458">
        <ele>745.353459</ele>
        <time>2021-03-29T20:26:16.612Z</time>
      </trkpt>
      <trkpt lat="47.14324" lon="6.3945">
        <ele>747.66235</ele>
        <time>2021-03-29T20:26:38.094Z</time>
      </trkpt>
      <trkpt lat="47.14379" lon="6.39445">
        <ele>751.411812</ele>
        <time>2021-03-29T20:27:17.008Z</time>
      </trkpt>
      <trkpt lat="47.14464" lon="6.39438">
        <ele>758.708186</ele>
        <time>2021-03-29T20:28:21.319Z</time>
      </trkpt>
      <trkpt lat="47.14518" lon="6.39441">
        <ele>763.338001</ele>
        <time>2021-03-29T20:29:02.229Z</time>
      </trkpt>
      <trkpt lat="47.14566" lon="6.39437">
        <ele>767.406475</ele>
        <time>2021-03-29T20:29:34.149Z</time>
      </trkpt>
      <trkpt lat="47.14587" lon="6.39427">
        <ele>768.156467</ele>
        <time>2021-03-29T20:29:48.441Z</time>
      </trkpt>
      <trkpt lat="47.14613" lon="6.394">
        <ele>769.210814</ele>
        <time>2021-03-29T20:30:06.375Z</time>
      </trkpt>
      <trkpt lat="47.14612" lon="6.39388">
        <ele>769.49255</ele>
        <time>2021-03-29T20:30:12.856Z</time>
      </trkpt>
      <trkpt lat="47.14612" lon="6.39368">
        <ele>769.942939</ele>
        <time>2021-03-29T20:30:19.269Z</time>
      </trkpt>
      <trkpt lat="47.14607" lon="6.3935">
        <ele>770.3847</ele>
        <time>2021-03-29T20:30:25.929Z</time>
      </trkpt>
      <trkpt lat="47.14593" lon="6.39328">
        <ele>771.104302</ele>
        <time>2021-03-29T20:30:37.138Z</time>
      </trkpt>
      <trkpt lat="47.14528" lon="6.3927">
        <ele>773.29896</ele>
        <time>2021-03-29T20:31:06.769Z</time>
      </trkpt>
      <trkpt lat="47.14506" lon="6.39222">
        <ele>772.559618</ele>
        <time>2021-03-29T20:31:19.962Z</time>
      </trkpt>
      <trkpt lat="47.14504" lon="6.39198">
        <ele>772.249261</ele>
        <time>2021-03-29T20:31:25.018Z</time>
      </trkpt>
      <trkpt lat="47.14509" lon="6.39147">
        <ele>771.595864</ele>
        <time>2021-03-29T20:31:36.102Z</time>
      </trkpt>
      <trkpt lat="47.14509" lon="6.39147">
        <ele>771.595864</ele>
        <time>2021-03-29T20:31:36.131Z</time>
      </trkpt>
      <trkpt lat="47.14509" lon="6.39147">
        <ele>771.595864</ele>
        <time>2021-03-29T20:31:36.131Z</time>
      </trkpt>
      <trkpt lat="47.14518" lon="6.39049">
        <ele>770.325868</ele>
        <time>2021-03-29T20:31:53.670Z</time>
      </trkpt>
      <trkpt lat="47.14527" lon="6.3895">
        <ele>767.250427</ele>
        <time>2021-03-29T20:32:11.199Z</time>
      </trkpt>
      <trkpt lat="47.14537" lon="6.38852">
        <ele>763.67777</ele>
        <time>2021-03-29T20:32:28.754Z</time>
      </trkpt>
      <trkpt lat="47.14532" lon="6.38847">
        <ele>763.379772</ele>
        <time>2021-03-29T20:32:30.137Z</time>
      </trkpt>
      <trkpt lat="47.14452" lon="6.38778">
        <ele>757.895337</ele>
        <time>2021-03-29T20:32:54.211Z</time>
      </trkpt>
      <trkpt lat="47.14395" lon="6.38688">
        <ele>752.193726</ele>
        <time>2021-03-29T20:33:15.608Z</time>
      </trkpt>
      <trkpt lat="47.14365" lon="6.3863">
        <ele>748.848632</ele>
        <time>2021-03-29T20:33:28.812Z</time>
      </trkpt>
      <trkpt lat="47.14358" lon="6.38615">
        <ele>748.126586</ele>
        <time>2021-03-29T20:33:31.943Z</time>
      </trkpt>
      <trkpt lat="47.14362" lon="6.38614">
        <ele>747.971148</ele>
        <time>2021-03-29T20:33:32.966Z</time>
      </trkpt>
      <trkpt lat="47.14372" lon="6.38607">
        <ele>747.462236</ele>
        <time>2021-03-29T20:33:36.418Z</time>
      </trkpt>
      <trkpt lat="47.144" lon="6.38587">
        <ele>746.120787</ele>
        <time>2021-03-29T20:33:45.127Z</time>
      </trkpt>
      <trkpt lat="47.14424" lon="6.38581">
        <ele>745.078328</ele>
        <time>2021-03-29T20:33:51.754Z</time>
      </trkpt>
      <trkpt lat="47.14452" lon="6.38582">
        <ele>743.852495</ele>
        <time>2021-03-29T20:33:59.931Z</time>
      </trkpt>
      <trkpt lat="47.14503" lon="6.38595">
        <ele>741.608028</ele>
        <time>2021-03-29T20:34:14.441Z</time>
      </trkpt>
      <trkpt lat="47.14537" lon="6.38615">
        <ele>739.83231</ele>
        <time>2021-03-29T20:34:25.575Z</time>
      </trkpt>
      <trkpt lat="47.14581" lon="6.38623">
        <ele>737.250259</ele>
        <time>2021-03-29T20:34:38.063Z</time>
      </trkpt>
      <trkpt lat="47.14551" lon="6.38551">
        <ele>733.921417</ele>
        <time>2021-03-29T20:34:53.593Z</time>
      </trkpt>
      <trkpt lat="47.14554" lon="6.38511">
        <ele>732.329118</ele>
        <time>2021-03-29T20:35:00.760Z</time>
      </trkpt>
      <trkpt lat="47.14561" lon="6.38492">
        <ele>731.510043</ele>
        <time>2021-03-29T20:35:04.473Z</time>
      </trkpt>
      <trkpt lat="47.14564" lon="6.38484">
        <ele>731.154278</ele>
        <time>2021-03-29T20:35:06.012Z</time>
      </trkpt>
      <trkpt lat="47.14609" lon="6.38424">
        <ele>727.28217</ele>
        <time>2021-03-29T20:35:21.681Z</time>
      </trkpt>
      <trkpt lat="47.1462" lon="6.38386">
        <ele>725.45017</ele>
        <time>2021-03-29T20:35:28.888Z</time>
      </trkpt>
      <trkpt lat="47.14665" lon="6.38359">
        <ele>722.267027</ele>
        <time>2021-03-29T20:35:41.486Z</time>
      </trkpt>
      <trkpt lat="47.1476" lon="6.38287">
        <ele>716.566734</ele>
        <time>2021-03-29T20:36:10.236Z</time>
      </trkpt>
      <trkpt lat="47.148" lon="6.38241">
        <ele>714.683013</ele>
        <time>2021-03-29T20:36:25.026Z</time>
      </trkpt>
      <trkpt lat="47.14854" lon="6.38186">
        <ele>712.269122</ele>
        <time>2021-03-29T20:36:44.990Z</time>
      </trkpt>
      <trkpt lat="47.14835" lon="6.38132">
        <ele>710.985639</ele>
        <time>2021-03-29T20:36:58.563Z</time>
      </trkpt>
      <trkpt lat="47.14746" lon="6.37887">
        <ele>705.212033</ele>
        <time>2021-03-29T20:37:55.956Z</time>
      </trkpt>
      <trkpt lat="47.14738" lon="6.37852">
        <ele>703.950636</ele>
        <time>2021-03-29T20:38:03.428Z</time>
      </trkpt>
      <trkpt lat="47.1474" lon="6.37846">
        <ele>703.695235</ele>
        <time>2021-03-29T20:38:04.622Z</time>
      </trkpt>
      <trkpt lat="47.14773" lon="6.37869">
        <ele>701.812922</ele>
        <time>2021-03-29T20:38:09.984Z</time>
      </trkpt>
      <trkpt lat="47.14775" lon="6.37861">
        <ele>701.536616</ele>
        <time>2021-03-29T20:38:10.719Z</time>
      </trkpt>
      <trkpt lat="47.14814" lon="6.378">
        <ele>698.624144</ele>
        <time>2021-03-29T20:38:19.861Z</time>
      </trkpt>
      <trkpt lat="47.14819" lon="6.37791">
        <ele>698.205839</ele>
        <time>2021-03-29T20:38:21.011Z</time>
      </trkpt>
      <trkpt lat="47.14827" lon="6.37776">
        <ele>697.667615</ele>
        <time>2021-03-29T20:38:22.880Z</time>
      </trkpt>
      <trkpt lat="47.14839" lon="6.37754">
        <ele>697.244845</ele>
        <time>2021-03-29T20:38:26.172Z</time>
      </trkpt>
      <trkpt lat="47.1485" lon="6.37736">
        <ele>696.870908</ele>
        <time>2021-03-29T20:38:28.621Z</time>
      </trkpt>
      <trkpt lat="47.14849" lon="6.37719">
        <ele>696.616018</ele>
        <time>2021-03-29T20:38:32.374Z</time>
      </trkpt>
      <trkpt lat="47.14823" lon="6.3768">
        <ele>695.815219</ele>
        <time>2021-03-29T20:38:42.721Z</time>
      </trkpt>
      <trkpt lat="47.14765" lon="6.37612">
        <ele>694.179155</ele>
        <time>2021-03-29T20:39:07.904Z</time>
      </trkpt>
      <trkpt lat="47.14736" lon="6.37557">
        <ele>694.881447</ele>
        <time>2021-03-29T20:39:30.101Z</time>
      </trkpt>
      <trkpt lat="47.14733" lon="6.37543">
        <ele>695.27044</ele>
        <time>2021-03-29T20:39:35.608Z</time>
      </trkpt>
      <trkpt lat="47.14733" lon="6.37543">
        <ele>695.27044</ele>
        <time>2021-03-29T20:39:35.670Z</time>
      </trkpt>
      <trkpt lat="47.14733" lon="6.37543">
        <ele>695.27044</ele>
        <time>2021-03-29T20:39:35.678Z</time>
      </trkpt>
      <trkpt lat="47.14733" lon="6.37543">
        <ele>695.27044</ele>
        <time>2021-03-29T20:39:35.680Z</time>
      </trkpt>
      <trkpt lat="47.14707" lon="6.37455">
        <ele>697.708465</ele>
        <time>2021-03-29T20:39:52.641Z</time>
      </trkpt>
      <trkpt lat="47.14681" lon="6.37366">
        <ele>700.146499</ele>
        <time>2021-03-29T20:40:09.604Z</time>
      </trkpt>
      <trkpt lat="47.14655" lon="6.37278">
        <ele>701.32662</ele>
        <time>2021-03-29T20:40:26.561Z</time>
      </trkpt>
      <trkpt lat="47.14654" lon="6.37271">
        <ele>701.402491</ele>
        <time>2021-03-29T20:40:28.633Z</time>
      </trkpt>
      <trkpt lat="47.14667" lon="6.37184">
        <ele>702.298304</ele>
        <time>2021-03-29T20:40:55.651Z</time>
      </trkpt>
      <trkpt lat="47.14675" lon="6.37073">
        <ele>702.698537</ele>
        <time>2021-03-29T20:41:22.002Z</time>
      </trkpt>
      <trkpt lat="47.14671" lon="6.36965">
        <ele>700.708513</ele>
        <time>2021-03-29T20:41:43.819Z</time>
      </trkpt>
      <trkpt lat="47.14672" lon="6.36956">
        <ele>700.539266</ele>
        <time>2021-03-29T20:41:45.591Z</time>
      </trkpt>
      <trkpt lat="47.14682" lon="6.36924">
        <ele>699.904196</ele>
        <time>2021-03-29T20:41:52.721Z</time>
      </trkpt>
      <trkpt lat="47.14686" lon="6.36915">
        <ele>699.714353</ele>
        <time>2021-03-29T20:41:54.739Z</time>
      </trkpt>
      <trkpt lat="47.14697" lon="6.36886">
        <ele>699.094379</ele>
        <time>2021-03-29T20:42:01.573Z</time>
      </trkpt>
      <trkpt lat="47.14712" lon="6.36845">
        <ele>698.261812</ele>
        <time>2021-03-29T20:42:11.053Z</time>
      </trkpt>
      <trkpt lat="47.14743" lon="6.36741">
        <ele>696.817317</ele>
        <time>2021-03-29T20:42:34.033Z</time>
      </trkpt>
      <trkpt lat="47.14782" lon="6.36622">
        <ele>695.112672</ele>
        <time>2021-03-29T20:43:03.776Z</time>
      </trkpt>
      <trkpt lat="47.14826" lon="6.36527">
        <ele>694.83743</ele>
        <time>2021-03-29T20:43:32.723Z</time>
      </trkpt>
      <trkpt lat="47.14831" lon="6.36504">
        <ele>694.814488</ele>
        <time>2021-03-29T20:43:38.691Z</time>
      </trkpt>
      <trkpt lat="47.14847" lon="6.36512">
        <ele>694.79053</ele>
        <time>2021-03-29T20:43:45.823Z</time>
      </trkpt>
      <trkpt lat="47.14898" lon="6.36521">
        <ele>694.720171</ele>
        <time>2021-03-29T20:44:04.898Z</time>
      </trkpt>
      <trkpt lat="47.14951" lon="6.36512">
        <ele>694.270246</ele>
        <time>2021-03-29T20:44:24.185Z</time>
      </trkpt>
      <trkpt lat="47.14989" lon="6.36506">
        <ele>693.695783</ele>
        <time>2021-03-29T20:44:37.365Z</time>
      </trkpt>
      <trkpt lat="47.15006" lon="6.36504">
        <ele>693.426295</ele>
        <time>2021-03-29T20:44:43.430Z</time>
      </trkpt>
      <trkpt lat="47.15032" lon="6.36501">
        <ele>693.030844</ele>
        <time>2021-03-29T20:44:51.793Z</time>
      </trkpt>
      <trkpt lat="47.15136" lon="6.36489">
        <ele>690.627777</ele>
        <time>2021-03-29T20:45:23.659Z</time>
      </trkpt>
      <trkpt lat="47.15152" lon="6.36482">
        <ele>689.954272</ele>
        <time>2021-03-29T20:45:28.410Z</time>
      </trkpt>
      <trkpt lat="47.15193" lon="6.36436">
        <ele>687.903265</ele>
        <time>2021-03-29T20:45:42.730Z</time>
      </trkpt>
      <trkpt lat="47.15246" lon="6.36344">
        <ele>684.62713</ele>
        <time>2021-03-29T20:46:05.875Z</time>
      </trkpt>
      <trkpt lat="47.15258" lon="6.36322">
        <ele>683.783324</ele>
        <time>2021-03-29T20:46:11.247Z</time>
      </trkpt>
      <trkpt lat="47.15259" lon="6.3626">
        <ele>681.972936</ele>
        <time>2021-03-29T20:46:23.133Z</time>
      </trkpt>
      <trkpt lat="47.15268" lon="6.36206">
        <ele>680.33337</ele>
        <time>2021-03-29T20:46:33.794Z</time>
      </trkpt>
      <trkpt lat="47.15269" lon="6.36178">
        <ele>679.521773</ele>
        <time>2021-03-29T20:46:39.055Z</time>
      </trkpt>
      <trkpt lat="47.15245" lon="6.36117">
        <ele>677.453462</ele>
        <time>2021-03-29T20:46:52.483Z</time>
      </trkpt>
      <trkpt lat="47.15205" lon="6.36019">
        <ele>674.797978</ele>
        <time>2021-03-29T20:47:15.108Z</time>
      </trkpt>
      <trkpt lat="47.15164" lon="6.35923">
        <ele>672.261867</ele>
        <time>2021-03-29T20:47:28.276Z</time>
      </trkpt>
      <trkpt lat="47.15138" lon="6.35872">
        <ele>670.892845</ele>
        <time>2021-03-29T20:47:35.840Z</time>
      </trkpt>
      <trkpt lat="47.15135" lon="6.35869">
        <ele>670.798277</ele>
        <time>2021-03-29T20:47:36.476Z</time>
      </trkpt>
      <trkpt lat="47.15079" lon="6.35817">
        <ele>669.187731</ele>
        <time>2021-03-29T20:47:48.420Z</time>
      </trkpt>
      <trkpt lat="47.14999" lon="6.35712">
        <ele>666.573349</ele>
        <time>2021-03-29T20:48:07.880Z</time>
      </trkpt>
      <trkpt lat="47.1508" lon="6.35585">
        <ele>663.797725</ele>
        <time>2021-03-29T20:48:28.998Z</time>
      </trkpt>
      <trkpt lat="47.15124" lon="6.35481">
        <ele>661.860991</ele>
        <time>2021-03-29T20:48:44.129Z</time>
      </trkpt>
      <trkpt lat="47.15129" lon="6.35454">
        <ele>661.422347</ele>
        <time>2021-03-29T20:48:47.765Z</time>
      </trkpt>
      <trkpt lat="47.15128" lon="6.35377">
        <ele>660.249202</ele>
        <time>2021-03-29T20:48:57.348Z</time>
      </trkpt>
      <trkpt lat="47.15145" lon="6.35334">
        <ele>659.472255</ele>
        <time>2021-03-29T20:49:03.579Z</time>
      </trkpt>
      <trkpt lat="47.15132" lon="6.35262">
        <ele>658.305311</ele>
        <time>2021-03-29T20:49:12.702Z</time>
      </trkpt>
      <trkpt lat="47.15129" lon="6.35207">
        <ele>657.259921</ele>
        <time>2021-03-29T20:49:19.261Z</time>
      </trkpt>
      <trkpt lat="47.1513" lon="6.352">
        <ele>657.114236</ele>
        <time>2021-03-29T20:49:20.219Z</time>
      </trkpt>
      <trkpt lat="47.15134" lon="6.35202">
        <ele>657.013169</ele>
        <time>2021-03-29T20:49:20.733Z</time>
      </trkpt>
      <trkpt lat="47.15163" lon="6.35211">
        <ele>656.156095</ele>
        <time>2021-03-29T20:49:26.366Z</time>
      </trkpt>
      <trkpt lat="47.15213" lon="6.35215">
        <ele>654.774121</ele>
        <time>2021-03-29T20:49:34.801Z</time>
      </trkpt>
      <trkpt lat="47.15248" lon="6.35217">
        <ele>653.764348</ele>
        <time>2021-03-29T20:49:41.052Z</time>
      </trkpt>
      <trkpt lat="47.15277" lon="6.35234">
        <ele>652.936268</ele>
        <time>2021-03-29T20:49:46.399Z</time>
      </trkpt>
      <trkpt lat="47.15345" lon="6.35298">
        <ele>650.915492</ele>
        <time>2021-03-29T20:50:00.424Z</time>
      </trkpt>
      <trkpt lat="47.15389" lon="6.3534">
        <ele>649.580906</ele>
        <time>2021-03-29T20:50:09.938Z</time>
      </trkpt>
      <trkpt lat="47.15413" lon="6.35334">
        <ele>648.974356</ele>
        <time>2021-03-29T20:50:14.532Z</time>
      </trkpt>
      <trkpt lat="47.15418" lon="6.35332">
        <ele>648.841662</ele>
        <time>2021-03-29T20:50:15.384Z</time>
      </trkpt>
      <trkpt lat="47.1541" lon="6.35265">
        <ele>648.094163</ele>
        <time>2021-03-29T20:50:23.689Z</time>
      </trkpt>
      <trkpt lat="47.15407" lon="6.35239">
        <ele>647.801225</ele>
        <time>2021-03-29T20:50:27.044Z</time>
      </trkpt>
      <trkpt lat="47.15404" lon="6.35203">
        <ele>647.40097</ele>
        <time>2021-03-29T20:50:31.484Z</time>
      </trkpt>
      <trkpt lat="47.15409" lon="6.35201">
        <ele>647.319213</ele>
        <time>2021-03-29T20:50:32.436Z</time>
      </trkpt>
      <trkpt lat="47.15431" lon="6.35198">
        <ele>646.957711</ele>
        <time>2021-03-29T20:50:36.637Z</time>
      </trkpt>
      <trkpt lat="47.15437" lon="6.35191">
        <ele>646.839122</ele>
        <time>2021-03-29T20:50:38.100Z</time>
      </trkpt>
      <trkpt lat="47.15473" lon="6.35097">
        <ele>645.73611</ele>
        <time>2021-03-29T20:50:52.482Z</time>
      </trkpt>
      <trkpt lat="47.15481" lon="6.35074">
        <ele>645.530255</ele>
        <time>2021-03-29T20:50:56.080Z</time>
      </trkpt>
      <trkpt lat="47.15508" lon="6.34995">
        <ele>644.827618</ele>
        <time>2021-03-29T20:51:08.298Z</time>
      </trkpt>
      <trkpt lat="47.15522" lon="6.34953">
        <ele>644.467819</ele>
        <time>2021-03-29T20:51:14.607Z</time>
      </trkpt>
      <trkpt lat="47.15524" lon="6.34943">
        <ele>644.387608</ele>
        <time>2021-03-29T20:51:16.055Z</time>
      </trkpt>
      <trkpt lat="47.15523" lon="6.34924">
        <ele>644.23439</ele>
        <time>2021-03-29T20:51:18.783Z</time>
      </trkpt>
      <trkpt lat="47.15521" lon="6.34893">
        <ele>643.985578</ele>
        <time>2021-03-29T20:51:22.866Z</time>
      </trkpt>
      <trkpt lat="47.15515" lon="6.34874">
        <ele>643.81212</ele>
        <time>2021-03-29T20:51:25.824Z</time>
      </trkpt>
      <trkpt lat="47.15507" lon="6.34853">
        <ele>643.575626</ele>
        <time>2021-03-29T20:51:28.884Z</time>
      </trkpt>
      <trkpt lat="47.15489" lon="6.34814">
        <ele>643.110632</ele>
        <time>2021-03-29T20:51:35.166Z</time>
      </trkpt>
      <trkpt lat="47.1545" lon="6.34761">
        <ele>642.325707</ele>
        <time>2021-03-29T20:51:45.580Z</time>
      </trkpt>
      <trkpt lat="47.15433" lon="6.34739">
        <ele>641.989261</ele>
        <time>2021-03-29T20:51:49.864Z</time>
      </trkpt>
      <trkpt lat="47.15436" lon="6.34733">
        <ele>641.908732</ele>
        <time>2021-03-29T20:51:50.861Z</time>
      </trkpt>
      <trkpt lat="47.15445" lon="6.34695">
        <ele>641.507549</ele>
        <time>2021-03-29T20:51:56.079Z</time>
      </trkpt>
      <trkpt lat="47.15499" lon="6.34641">
        <ele>640.632899</ele>
        <time>2021-03-29T20:52:08.480Z</time>
      </trkpt>
      <trkpt lat="47.15476" lon="6.34584">
        <ele>640.051278</ele>
        <time>2021-03-29T20:52:17.180Z</time>
      </trkpt>
      <trkpt lat="47.15472" lon="6.34572">
        <ele>639.936522</ele>
        <time>2021-03-29T20:52:18.824Z</time>
      </trkpt>
      <trkpt lat="47.15459" lon="6.34534">
        <ele>639.567774</ele>
        <time>2021-03-29T20:52:24.720Z</time>
      </trkpt>
      <trkpt lat="47.15449" lon="6.34483">
        <ele>639.103198</ele>
        <time>2021-03-29T20:52:32.170Z</time>
      </trkpt>
      <trkpt lat="47.15449" lon="6.34479">
        <ele>639.071811</ele>
        <time>2021-03-29T20:52:32.608Z</time>
      </trkpt>
      <trkpt lat="47.15457" lon="6.3448">
        <ele>638.971772</ele>
        <time>2021-03-29T20:52:34.192Z</time>
      </trkpt>
      <trkpt lat="47.15469" lon="6.34476">
        <ele>638.860401</ele>
        <time>2021-03-29T20:52:36.839Z</time>
      </trkpt>
      <trkpt lat="47.15475" lon="6.34473">
        <ele>638.820673</ele>
        <time>2021-03-29T20:52:38.170Z</time>
      </trkpt>
      <trkpt lat="47.15471" lon="6.34421">
        <ele>638.602733</ele>
        <time>2021-03-29T20:52:45.782Z</time>
      </trkpt>
      <trkpt lat="47.15463" lon="6.3438">
        <ele>638.426823</ele>
        <time>2021-03-29T20:52:52.148Z</time>
      </trkpt>
      <trkpt lat="47.15434" lon="6.34352">
        <ele>638.215952</ele>
        <time>2021-03-29T20:52:59.494Z</time>
      </trkpt>
      <trkpt lat="47.1543" lon="6.34353">
        <ele>638.189706</ele>
        <time>2021-03-29T20:53:00.553Z</time>
      </trkpt>
      <trkpt lat="47.15425" lon="6.343">
        <ele>637.969987</ele>
        <time>2021-03-29T20:53:08.268Z</time>
      </trkpt>
      <trkpt lat="47.15425" lon="6.3429">
        <ele>637.929484</ele>
        <time>2021-03-29T20:53:09.551Z</time>
      </trkpt>
      <trkpt lat="47.15408" lon="6.34272">
        <ele>637.798216</ele>
        <time>2021-03-29T20:53:14.262Z</time>
      </trkpt>
      <trkpt lat="47.15391" lon="6.3425">
        <ele>637.619836</ele>
        <time>2021-03-29T20:53:18.896Z</time>
      </trkpt>
      <trkpt lat="47.15389" lon="6.34247">
        <ele>637.598028</ele>
        <time>2021-03-29T20:53:19.680Z</time>
      </trkpt>
      <trkpt lat="47.15405" lon="6.34228">
        <ele>637.435329</ele>
        <time>2021-03-29T20:53:24.017Z</time>
      </trkpt>
      <trkpt lat="47.15413" lon="6.34217">
        <ele>637.350283</ele>
        <time>2021-03-29T20:53:26.141Z</time>
      </trkpt>
      <trkpt lat="47.15429" lon="6.34191">
        <ele>637.164811</ele>
        <time>2021-03-29T20:53:31.413Z</time>
      </trkpt>
      <trkpt lat="47.15449" lon="6.3414">
        <ele>636.849351</ele>
        <time>2021-03-29T20:53:39.507Z</time>
      </trkpt>
      <trkpt lat="47.1546" lon="6.34112">
        <ele>636.674025</ele>
        <time>2021-03-29T20:53:44.156Z</time>
      </trkpt>
      <trkpt lat="47.15468" lon="6.34095">
        <ele>636.562962</ele>
        <time>2021-03-29T20:53:46.927Z</time>
      </trkpt>
      <trkpt lat="47.15469" lon="6.34089">
        <ele>636.531422</ele>
        <time>2021-03-29T20:53:47.678Z</time>
      </trkpt>
      <trkpt lat="47.15466" lon="6.34014">
        <ele>636.032874</ele>
        <time>2021-03-29T20:53:57.927Z</time>
      </trkpt>
      <trkpt lat="47.15464" lon="6.34001">
        <ele>635.929309</ele>
        <time>2021-03-29T20:53:59.896Z</time>
      </trkpt>
      <trkpt lat="47.15463" lon="6.33993">
        <ele>635.869877</ele>
        <time>2021-03-29T20:54:01.024Z</time>
      </trkpt>
      <trkpt lat="47.15462" lon="6.33984">
        <ele>635.807568</ele>
        <time>2021-03-29T20:54:02.184Z</time>
      </trkpt>
      <trkpt lat="47.15462" lon="6.33947">
        <ele>635.537946</ele>
        <time>2021-03-29T20:54:07.304Z</time>
      </trkpt>
      <trkpt lat="47.15463" lon="6.33901">
        <ele>635.200243</ele>
        <time>2021-03-29T20:54:13.689Z</time>
      </trkpt>
      <trkpt lat="47.15466" lon="6.33824">
        <ele>634.640012</ele>
        <time>2021-03-29T20:54:24.015Z</time>
      </trkpt>
      <trkpt lat="47.15467" lon="6.33808">
        <ele>634.521159</ele>
        <time>2021-03-29T20:54:26.206Z</time>
      </trkpt>
      <trkpt lat="47.15468" lon="6.33792">
        <ele>634.414661</ele>
        <time>2021-03-29T20:54:28.379Z</time>
      </trkpt>
      <trkpt lat="47.15482" lon="6.33691">
        <ele>633.806617</ele>
        <time>2021-03-29T20:54:42.368Z</time>
      </trkpt>
      <trkpt lat="47.15483" lon="6.33682">
        <ele>633.753874</ele>
        <time>2021-03-29T20:54:43.554Z</time>
      </trkpt>
      <trkpt lat="47.15483" lon="6.3366">
        <ele>633.621348</ele>
        <time>2021-03-29T20:54:46.803Z</time>
      </trkpt>
      <trkpt lat="47.15482" lon="6.33635">
        <ele>633.475437</ele>
        <time>2021-03-29T20:54:50.299Z</time>
      </trkpt>
      <trkpt lat="47.15475" lon="6.33556">
        <ele>633.003047</ele>
        <time>2021-03-29T20:55:01.740Z</time>
      </trkpt>
      <trkpt lat="47.15472" lon="6.33505">
        <ele>632.899768</ele>
        <time>2021-03-29T20:55:09.250Z</time>
      </trkpt>
      <trkpt lat="47.15471" lon="6.33486">
        <ele>632.899768</ele>
        <time>2021-03-29T20:55:12.285Z</time>
      </trkpt>
      <trkpt lat="47.15464" lon="6.33464">
        <ele>632.899768</ele>
        <time>2021-03-29T20:55:15.784Z</time>
      </trkpt>
      <trkpt lat="47.15455" lon="6.3345">
        <ele>632.899768</ele>
        <time>2021-03-29T20:55:18.988Z</time>
      </trkpt>
      <trkpt lat="47.15478" lon="6.33415">
        <ele>632.899768</ele>
        <time>2021-03-29T20:55:26.682Z</time>
      </trkpt>
      <trkpt lat="47.15486" lon="6.33386">
        <ele>632.899768</ele>
        <time>2021-03-29T20:55:31.818Z</time>
      </trkpt>
      <trkpt lat="47.15488" lon="6.33369">
        <ele>632.899768</ele>
        <time>2021-03-29T20:55:34.630Z</time>
      </trkpt>
      <trkpt lat="47.1547" lon="6.33377">
        <ele>632.899768</ele>
        <time>2021-03-29T20:55:47.533Z</time>
      </trkpt>
      <trkpt lat="47.15467" lon="6.33365">
        <ele>632.899768</ele>
        <time>2021-03-29T20:55:53.810Z</time>
      </trkpt>
      <trkpt lat="47.15459" lon="6.3336">
        <ele>632.899768</ele>
        <time>2021-03-29T20:55:59.826Z</time>
      </trkpt>
      <trkpt lat="47.15426" lon="6.33343">
        <ele>632.899768</ele>
        <time>2021-03-29T20:56:24.224Z</time>
      </trkpt>
      <trkpt lat="47.15423" lon="6.33349">
        <ele>632.899768</ele>
        <time>2021-03-29T20:56:25.660Z</time>
      </trkpt>
      <trkpt lat="47.15393" lon="6.33365">
        <ele>632.899768</ele>
        <time>2021-03-29T20:56:32.935Z</time>
      </trkpt>
      <trkpt lat="47.15381" lon="6.33363">
        <ele>632.899768</ele>
        <time>2021-03-29T20:56:35.955Z</time>
      </trkpt>
    </trkseg>
  </trk>
</gpx>